<?xml version="1.0" encoding="UTF-8" standalone="no" ?>
<gpx xmlns="http://www.topografix.com/GPX/1/1" xmlns:xsi="http://www.w3.org/2001/XMLSchema-instance" xsi:schemaLocation="http://www.topografix.com/GPX/1/1 http://www.topografix.com/GPX/1/1/gpx.xsd" version="1.1" creator="VisuGPX - https://www.visugpx.com">
  <metadata>
    <name>MAXI FREP J3/SAINT CYRQ LAPOPIE/58/1106</name>
  </metadata>
  <trk>
    <name><![CDATA[MAXI FREP SAINT CYRQ LAPOPIE]]></name>
    <extensions>
      <line xmlns="http://www.topografix.com/GPX/gpx_style/0/2">
        <color>0000FF</color>
        <width>4</width>
      </line>
    </extensions>
    <trkseg>
      <trkpt lat="44.47784" lon="1.54392">
        <ele>225.3715057373</ele>
        <time>2021-03-15T15:20:15.000Z</time>
      </trkpt>
      <trkpt lat="44.47735" lon="1.54328">
        <ele>231.03471374512</ele>
        <time>2021-03-15T15:20:15.013Z</time>
      </trkpt>
      <trkpt lat="44.47671" lon="1.54188">
        <ele>243.0945892334</ele>
        <time>2021-03-15T15:20:15.050Z</time>
      </trkpt>
      <trkpt lat="44.4766" lon="1.54155">
        <ele>244.46153259277</ele>
        <time>2021-03-15T15:20:15.092Z</time>
      </trkpt>
      <trkpt lat="44.47654" lon="1.54087">
        <ele>246.56745910645</ele>
        <time>2021-03-15T15:20:15.144Z</time>
      </trkpt>
      <trkpt lat="44.47634" lon="1.541">
        <ele>245.39060974121</ele>
        <time>2021-03-15T15:20:15.201Z</time>
      </trkpt>
      <trkpt lat="44.47614" lon="1.54119">
        <ele>244.12785339355</ele>
        <time>2021-03-15T15:20:15.262Z</time>
      </trkpt>
      <trkpt lat="44.47566" lon="1.54178">
        <ele>236.23510742188</ele>
        <time>2021-03-15T15:20:15.336Z</time>
      </trkpt>
      <trkpt lat="44.47511" lon="1.54233">
        <ele>231.0751953125</ele>
        <time>2021-03-15T15:20:15.424Z</time>
      </trkpt>
      <trkpt lat="44.4748" lon="1.54254">
        <ele>228.40744018555</ele>
        <time>2021-03-15T15:20:15.519Z</time>
      </trkpt>
      <trkpt lat="44.47466" lon="1.54379">
        <ele>219.20355224609</ele>
        <time>2021-03-15T15:20:15.632Z</time>
      </trkpt>
      <trkpt lat="44.47449" lon="1.544">
        <ele>215.50047302246</ele>
        <time>2021-03-15T15:20:15.749Z</time>
      </trkpt>
      <trkpt lat="44.47392" lon="1.54454">
        <ele>206.81527709961</ele>
        <time>2021-03-15T15:20:15.880Z</time>
      </trkpt>
      <trkpt lat="44.47354" lon="1.5447">
        <ele>201.56072998047</ele>
        <time>2021-03-15T15:20:16.019Z</time>
      </trkpt>
      <trkpt lat="44.47335" lon="1.54491">
        <ele>197.91108703613</ele>
        <time>2021-03-15T15:20:16.163Z</time>
      </trkpt>
      <trkpt lat="44.47342" lon="1.54573">
        <ele>191.51257324219</ele>
        <time>2021-03-15T15:20:16.319Z</time>
      </trkpt>
      <trkpt lat="44.47276" lon="1.54643">
        <ele>179.6584777832</ele>
        <time>2021-03-15T15:20:16.491Z</time>
      </trkpt>
      <trkpt lat="44.47266" lon="1.54619">
        <ele>181.88986206055</ele>
        <time>2021-03-15T15:20:16.667Z</time>
      </trkpt>
      <trkpt lat="44.47254" lon="1.54607">
        <ele>182.5595703125</ele>
        <time>2021-03-15T15:20:16.846Z</time>
      </trkpt>
      <trkpt lat="44.4724" lon="1.54585">
        <ele>182.97445678711</ele>
        <time>2021-03-15T15:20:17.029Z</time>
      </trkpt>
      <trkpt lat="44.47217" lon="1.54585">
        <ele>180.66548156738</ele>
        <time>2021-03-15T15:20:17.217Z</time>
      </trkpt>
      <trkpt lat="44.4719" lon="1.54595">
        <ele>178.23020935059</ele>
        <time>2021-03-15T15:20:17.411Z</time>
      </trkpt>
      <trkpt lat="44.4709" lon="1.54604">
        <ele>171.23616027832</ele>
        <time>2021-03-15T15:20:17.625Z</time>
      </trkpt>
      <trkpt lat="44.47042" lon="1.54624">
        <ele>168.46026611328</ele>
        <time>2021-03-15T15:20:17.849Z</time>
      </trkpt>
      <trkpt lat="44.46992" lon="1.54635">
        <ele>164.1114654541</ele>
        <time>2021-03-15T15:20:18.083Z</time>
      </trkpt>
      <trkpt lat="44.46896" lon="1.5462">
        <ele>153.42193603516</ele>
        <time>2021-03-15T15:20:18.336Z</time>
      </trkpt>
      <trkpt lat="44.46816" lon="1.54592">
        <ele>137.18089294434</ele>
        <time>2021-03-15T15:20:18.606Z</time>
      </trkpt>
      <trkpt lat="44.46848" lon="1.54687">
        <ele>143.35046386719</ele>
        <time>2021-03-15T15:20:18.891Z</time>
      </trkpt>
      <trkpt lat="44.46887" lon="1.54741">
        <ele>150.8560333252</ele>
        <time>2021-03-15T15:20:19.187Z</time>
      </trkpt>
      <trkpt lat="44.46915" lon="1.5479">
        <ele>146.68814086914</ele>
        <time>2021-03-15T15:20:19.492Z</time>
      </trkpt>
      <trkpt lat="44.46938" lon="1.54802">
        <ele>147.40110778809</ele>
        <time>2021-03-15T15:20:19.802Z</time>
      </trkpt>
      <trkpt lat="44.46954" lon="1.54828">
        <ele>142.41993713379</ele>
        <time>2021-03-15T15:20:20.116Z</time>
      </trkpt>
      <trkpt lat="44.46985" lon="1.54847">
        <ele>141.55201721191</ele>
        <time>2021-03-15T15:20:20.437Z</time>
      </trkpt>
      <trkpt lat="44.47023" lon="1.54855">
        <ele>145.13235473633</ele>
        <time>2021-03-15T15:20:20.766Z</time>
      </trkpt>
      <trkpt lat="44.47065" lon="1.5486">
        <ele>145.07803344727</ele>
        <time>2021-03-15T15:20:21.103Z</time>
      </trkpt>
      <trkpt lat="44.47126" lon="1.54853">
        <ele>141.95674133301</ele>
        <time>2021-03-15T15:20:21.453Z</time>
      </trkpt>
      <trkpt lat="44.47305" lon="1.54797">
        <ele>146.53179931641</ele>
        <time>2021-03-15T15:20:21.839Z</time>
      </trkpt>
      <trkpt lat="44.47514" lon="1.54752">
        <ele>138.2174987793</ele>
        <time>2021-03-15T15:20:22.268Z</time>
      </trkpt>
      <trkpt lat="44.47546" lon="1.54734">
        <ele>142.85659790039</ele>
        <time>2021-03-15T15:20:22.703Z</time>
      </trkpt>
      <trkpt lat="44.47616" lon="1.54746">
        <ele>139.53157043457</ele>
        <time>2021-03-15T15:20:23.153Z</time>
      </trkpt>
      <trkpt lat="44.47683" lon="1.54771">
        <ele>133.97250366211</ele>
        <time>2021-03-15T15:20:23.616Z</time>
      </trkpt>
      <trkpt lat="44.47735" lon="1.54808">
        <ele>131.40277099609</ele>
        <time>2021-03-15T15:20:24.091Z</time>
      </trkpt>
      <trkpt lat="44.47722" lon="1.54839">
        <ele>128.71830749512</ele>
        <time>2021-03-15T15:20:24.571Z</time>
      </trkpt>
      <trkpt lat="44.47722" lon="1.54867">
        <ele>126.85143280029</ele>
        <time>2021-03-15T15:20:25.055Z</time>
      </trkpt>
      <trkpt lat="44.47775" lon="1.54898">
        <ele>128.65060424805</ele>
        <time>2021-03-15T15:20:25.551Z</time>
      </trkpt>
      <trkpt lat="44.47786" lon="1.54917">
        <ele>126.78489685059</ele>
        <time>2021-03-15T15:20:26.050Z</time>
      </trkpt>
      <trkpt lat="44.47847" lon="1.54972">
        <ele>128.59828186035</ele>
        <time>2021-03-15T15:20:26.564Z</time>
      </trkpt>
      <trkpt lat="44.47851" lon="1.55037">
        <ele>126.7516784668</ele>
        <time>2021-03-15T15:20:27.087Z</time>
      </trkpt>
      <trkpt lat="44.47876" lon="1.55043">
        <ele>127.50241851807</ele>
        <time>2021-03-15T15:20:27.615Z</time>
      </trkpt>
      <trkpt lat="44.47935" lon="1.55049">
        <ele>128.64776611328</ele>
        <time>2021-03-15T15:20:28.155Z</time>
      </trkpt>
      <trkpt lat="44.47976" lon="1.55061">
        <ele>129.72001647949</ele>
        <time>2021-03-15T15:20:28.703Z</time>
      </trkpt>
      <trkpt lat="44.48019" lon="1.55087">
        <ele>128.4603729248</ele>
        <time>2021-03-15T15:20:29.261Z</time>
      </trkpt>
      <trkpt lat="44.4819" lon="1.55134">
        <ele>126.47830963135</ele>
        <time>2021-03-15T15:20:29.854Z</time>
      </trkpt>
      <trkpt lat="44.48265" lon="1.55173">
        <ele>121.7536239624</ele>
        <time>2021-03-15T15:20:30.463Z</time>
      </trkpt>
      <trkpt lat="44.48301" lon="1.55207">
        <ele>123.81216430664</ele>
        <time>2021-03-15T15:20:31.080Z</time>
      </trkpt>
      <trkpt lat="44.48343" lon="1.55252">
        <ele>124.34506988525</ele>
        <time>2021-03-15T15:20:31.708Z</time>
      </trkpt>
      <trkpt lat="44.48386" lon="1.55299">
        <ele>122.17572784424</ele>
        <time>2021-03-15T15:20:32.347Z</time>
      </trkpt>
      <trkpt lat="44.484" lon="1.55319">
        <ele>121.58400726318</ele>
        <time>2021-03-15T15:20:32.990Z</time>
      </trkpt>
      <trkpt lat="44.48427" lon="1.55335">
        <ele>121</ele>
        <time>2021-03-15T15:20:33.639Z</time>
      </trkpt>
      <trkpt lat="44.48455" lon="1.55312">
        <ele>122.61199951172</ele>
        <time>2021-03-15T15:20:34.294Z</time>
      </trkpt>
      <trkpt lat="44.48449" lon="1.5529">
        <ele>122.97189331055</ele>
        <time>2021-03-15T15:20:34.953Z</time>
      </trkpt>
      <trkpt lat="44.48354" lon="1.55204">
        <ele>126.70802307129</ele>
        <time>2021-03-15T15:20:35.634Z</time>
      </trkpt>
      <trkpt lat="44.48352" lon="1.55182">
        <ele>129.31074523926</ele>
        <time>2021-03-15T15:20:36.318Z</time>
      </trkpt>
      <trkpt lat="44.48381" lon="1.55178">
        <ele>129.5750579834</ele>
        <time>2021-03-15T15:20:37.008Z</time>
      </trkpt>
      <trkpt lat="44.484" lon="1.55159">
        <ele>133.38145446777</ele>
        <time>2021-03-15T15:20:37.703Z</time>
      </trkpt>
      <trkpt lat="44.48325" lon="1.55163">
        <ele>133.55290222168</ele>
        <time>2021-03-15T15:20:38.413Z</time>
      </trkpt>
      <trkpt lat="44.48153" lon="1.5552">
        <ele>131.55340576172</ele>
        <time>2021-03-15T15:20:39.185Z</time>
      </trkpt>
      <trkpt lat="44.4813" lon="1.55551">
        <ele>141.95579528809</ele>
        <time>2021-03-15T15:20:39.963Z</time>
      </trkpt>
      <trkpt lat="44.48079" lon="1.55466">
        <ele>134.60678100586</ele>
        <time>2021-03-15T15:20:40.757Z</time>
      </trkpt>
      <trkpt lat="44.48049" lon="1.55456">
        <ele>133.89164733887</ele>
        <time>2021-03-15T15:20:41.557Z</time>
      </trkpt>
      <trkpt lat="44.47999" lon="1.55481">
        <ele>138.79644775391</ele>
        <time>2021-03-15T15:20:42.368Z</time>
      </trkpt>
      <trkpt lat="44.47971" lon="1.55505">
        <ele>141.55368041992</ele>
        <time>2021-03-15T15:20:43.185Z</time>
      </trkpt>
      <trkpt lat="44.47927" lon="1.55588">
        <ele>152.12185668945</ele>
        <time>2021-03-15T15:20:44.017Z</time>
      </trkpt>
      <trkpt lat="44.47901" lon="1.55621">
        <ele>152.6707611084</ele>
        <time>2021-03-15T15:20:44.856Z</time>
      </trkpt>
      <trkpt lat="44.47825" lon="1.55637">
        <ele>151.87564086914</ele>
        <time>2021-03-15T15:20:45.710Z</time>
      </trkpt>
      <trkpt lat="44.47739" lon="1.55692">
        <ele>148.85510253906</ele>
        <time>2021-03-15T15:20:46.583Z</time>
      </trkpt>
      <trkpt lat="44.47727" lon="1.55702">
        <ele>149</ele>
        <time>2021-03-15T15:20:47.459Z</time>
      </trkpt>
      <trkpt lat="44.47728" lon="1.55745">
        <ele>148.76928710938</ele>
        <time>2021-03-15T15:20:48.341Z</time>
      </trkpt>
      <trkpt lat="44.47719" lon="1.55853">
        <ele>145.4952545166</ele>
        <time>2021-03-15T15:20:49.239Z</time>
      </trkpt>
      <trkpt lat="44.47666" lon="1.55836">
        <ele>150.85270690918</ele>
        <time>2021-03-15T15:20:50.148Z</time>
      </trkpt>
      <trkpt lat="44.4763" lon="1.558">
        <ele>163.07164001465</ele>
        <time>2021-03-15T15:20:51.066Z</time>
      </trkpt>
      <trkpt lat="44.4759" lon="1.55725">
        <ele>178.18051147461</ele>
        <time>2021-03-15T15:20:51.997Z</time>
      </trkpt>
      <trkpt lat="44.47552" lon="1.55629">
        <ele>188.62300109863</ele>
        <time>2021-03-15T15:20:52.944Z</time>
      </trkpt>
      <trkpt lat="44.47555" lon="1.5572">
        <ele>193.80505371094</ele>
        <time>2021-03-15T15:20:53.904Z</time>
      </trkpt>
      <trkpt lat="44.47503" lon="1.55599">
        <ele>206.04542541504</ele>
        <time>2021-03-15T15:20:54.884Z</time>
      </trkpt>
      <trkpt lat="44.47482" lon="1.55505">
        <ele>202.97805786133</ele>
        <time>2021-03-15T15:20:55.878Z</time>
      </trkpt>
      <trkpt lat="44.47473" lon="1.55483">
        <ele>198.79922485352</ele>
        <time>2021-03-15T15:20:56.876Z</time>
      </trkpt>
      <trkpt lat="44.47452" lon="1.55467">
        <ele>201.54389953613</ele>
        <time>2021-03-15T15:20:57.878Z</time>
      </trkpt>
      <trkpt lat="44.47405" lon="1.55468">
        <ele>214.70219421387</ele>
        <time>2021-03-15T15:20:58.890Z</time>
      </trkpt>
      <trkpt lat="44.4736" lon="1.55491">
        <ele>222.58995056152</ele>
        <time>2021-03-15T15:20:59.911Z</time>
      </trkpt>
      <trkpt lat="44.47315" lon="1.55494">
        <ele>223.83721923828</ele>
        <time>2021-03-15T15:21:00.941Z</time>
      </trkpt>
      <trkpt lat="44.47214" lon="1.55487">
        <ele>213.5355682373</ele>
        <time>2021-03-15T15:21:01.992Z</time>
      </trkpt>
      <trkpt lat="44.4719" lon="1.55497">
        <ele>215.00578308105</ele>
        <time>2021-03-15T15:21:03.048Z</time>
      </trkpt>
      <trkpt lat="44.47118" lon="1.555">
        <ele>212.56011962891</ele>
        <time>2021-03-15T15:21:04.118Z</time>
      </trkpt>
      <trkpt lat="44.47078" lon="1.55481">
        <ele>206.82843017578</ele>
        <time>2021-03-15T15:21:05.197Z</time>
      </trkpt>
      <trkpt lat="44.47036" lon="1.55473">
        <ele>208.23826599121</ele>
        <time>2021-03-15T15:21:06.284Z</time>
      </trkpt>
      <trkpt lat="44.47032" lon="1.55452">
        <ele>205.1791229248</ele>
        <time>2021-03-15T15:21:07.374Z</time>
      </trkpt>
      <trkpt lat="44.46957" lon="1.55377">
        <ele>204.7696685791</ele>
        <time>2021-03-15T15:21:08.483Z</time>
      </trkpt>
      <trkpt lat="44.46883" lon="1.55318">
        <ele>195.63854980469</ele>
        <time>2021-03-15T15:21:09.609Z</time>
      </trkpt>
      <trkpt lat="44.46794" lon="1.55272">
        <ele>202.84848022461</ele>
        <time>2021-03-15T15:21:10.754Z</time>
      </trkpt>
      <trkpt lat="44.46732" lon="1.55219">
        <ele>202.29824829102</ele>
        <time>2021-03-15T15:21:11.913Z</time>
      </trkpt>
      <trkpt lat="44.46698" lon="1.5518">
        <ele>202.44221496582</ele>
        <time>2021-03-15T15:21:13.081Z</time>
      </trkpt>
      <trkpt lat="44.46681" lon="1.55165">
        <ele>201.5710144043</ele>
        <time>2021-03-15T15:21:14.253Z</time>
      </trkpt>
      <trkpt lat="44.46637" lon="1.55165">
        <ele>202.48469543457</ele>
        <time>2021-03-15T15:21:15.434Z</time>
      </trkpt>
      <trkpt lat="44.46592" lon="1.55194">
        <ele>199.80471801758</ele>
        <time>2021-03-15T15:21:16.625Z</time>
      </trkpt>
      <trkpt lat="44.46537" lon="1.55253">
        <ele>199.84376525879</ele>
        <time>2021-03-15T15:21:17.830Z</time>
      </trkpt>
      <trkpt lat="44.46506" lon="1.5529">
        <ele>197.16879272461</ele>
        <time>2021-03-15T15:21:19.043Z</time>
      </trkpt>
      <trkpt lat="44.46476" lon="1.55291">
        <ele>192.27925109863</ele>
        <time>2021-03-15T15:21:20.262Z</time>
      </trkpt>
      <trkpt lat="44.46455" lon="1.55315">
        <ele>191.98916625977</ele>
        <time>2021-03-15T15:21:21.486Z</time>
      </trkpt>
      <trkpt lat="44.46441" lon="1.55316">
        <ele>191.58811950684</ele>
        <time>2021-03-15T15:21:22.713Z</time>
      </trkpt>
      <trkpt lat="44.46432" lon="1.553">
        <ele>191.98400878906</ele>
        <time>2021-03-15T15:21:23.943Z</time>
      </trkpt>
      <trkpt lat="44.46376" lon="1.55522">
        <ele>202.11874389648</ele>
        <time>2021-03-15T15:21:25.207Z</time>
      </trkpt>
      <trkpt lat="44.46358" lon="1.55552">
        <ele>202.63703918457</ele>
        <time>2021-03-15T15:21:26.476Z</time>
      </trkpt>
      <trkpt lat="44.46338" lon="1.55575">
        <ele>205.74189758301</ele>
        <time>2021-03-15T15:21:27.750Z</time>
      </trkpt>
      <trkpt lat="44.46283" lon="1.55621">
        <ele>209.7001953125</ele>
        <time>2021-03-15T15:21:29.037Z</time>
      </trkpt>
      <trkpt lat="44.46269" lon="1.55638">
        <ele>210.18955993652</ele>
        <time>2021-03-15T15:21:30.328Z</time>
      </trkpt>
      <trkpt lat="44.46269" lon="1.55678">
        <ele>212.40493774414</ele>
        <time>2021-03-15T15:21:31.625Z</time>
      </trkpt>
      <trkpt lat="44.46227" lon="1.55739">
        <ele>215.62916564941</ele>
        <time>2021-03-15T15:21:32.934Z</time>
      </trkpt>
      <trkpt lat="44.46183" lon="1.55847">
        <ele>220.1194152832</ele>
        <time>2021-03-15T15:21:34.261Z</time>
      </trkpt>
      <trkpt lat="44.4618" lon="1.55884">
        <ele>221.3197479248</ele>
        <time>2021-03-15T15:21:35.593Z</time>
      </trkpt>
      <trkpt lat="44.46159" lon="1.55912">
        <ele>222.5352935791</ele>
        <time>2021-03-15T15:21:36.931Z</time>
      </trkpt>
      <trkpt lat="44.46127" lon="1.55926">
        <ele>222.83027648926</ele>
        <time>2021-03-15T15:21:38.275Z</time>
      </trkpt>
      <trkpt lat="44.461" lon="1.55955">
        <ele>225.3224029541</ele>
        <time>2021-03-15T15:21:39.626Z</time>
      </trkpt>
      <trkpt lat="44.46032" lon="1.56096">
        <ele>233.17344665527</ele>
        <time>2021-03-15T15:21:41.002Z</time>
      </trkpt>
      <trkpt lat="44.46026" lon="1.56113">
        <ele>234.0691986084</ele>
        <time>2021-03-15T15:21:42.380Z</time>
      </trkpt>
      <trkpt lat="44.46032" lon="1.56143">
        <ele>237.55651855469</ele>
        <time>2021-03-15T15:21:43.763Z</time>
      </trkpt>
      <trkpt lat="44.46051" lon="1.56175">
        <ele>241.59028625488</ele>
        <time>2021-03-15T15:21:45.152Z</time>
      </trkpt>
      <trkpt lat="44.46054" lon="1.56225">
        <ele>247.09675598145</ele>
        <time>2021-03-15T15:21:46.548Z</time>
      </trkpt>
      <trkpt lat="44.46046" lon="1.56302">
        <ele>253.2000579834</ele>
        <time>2021-03-15T15:21:47.955Z</time>
      </trkpt>
      <trkpt lat="44.4604" lon="1.56314">
        <ele>253.68180847168</ele>
        <time>2021-03-15T15:21:49.364Z</time>
      </trkpt>
      <trkpt lat="44.46029" lon="1.56319">
        <ele>253.42988586426</ele>
        <time>2021-03-15T15:21:50.775Z</time>
      </trkpt>
      <trkpt lat="44.46022" lon="1.56307">
        <ele>252.48258972168</ele>
        <time>2021-03-15T15:21:52.189Z</time>
      </trkpt>
      <trkpt lat="44.45995" lon="1.56276">
        <ele>253.03965759277</ele>
        <time>2021-03-15T15:21:53.610Z</time>
      </trkpt>
      <trkpt lat="44.4597" lon="1.56263">
        <ele>254.33529663086</ele>
        <time>2021-03-15T15:21:55.036Z</time>
      </trkpt>
      <trkpt lat="44.45865" lon="1.56387">
        <ele>272.37362670898</ele>
        <time>2021-03-15T15:21:56.490Z</time>
      </trkpt>
      <trkpt lat="44.45808" lon="1.56478">
        <ele>281.88342285156</ele>
        <time>2021-03-15T15:21:57.961Z</time>
      </trkpt>
      <trkpt lat="44.45755" lon="1.56545">
        <ele>289.44183349609</ele>
        <time>2021-03-15T15:21:59.446Z</time>
      </trkpt>
      <trkpt lat="44.45781" lon="1.56611">
        <ele>290.29718017578</ele>
        <time>2021-03-15T15:22:00.942Z</time>
      </trkpt>
      <trkpt lat="44.45794" lon="1.56655">
        <ele>292.41015625</ele>
        <time>2021-03-15T15:22:02.445Z</time>
      </trkpt>
      <trkpt lat="44.45803" lon="1.56696">
        <ele>293.22833251953</ele>
        <time>2021-03-15T15:22:03.954Z</time>
      </trkpt>
      <trkpt lat="44.45823" lon="1.56746">
        <ele>295.78854370117</ele>
        <time>2021-03-15T15:22:05.471Z</time>
      </trkpt>
      <trkpt lat="44.45871" lon="1.56833">
        <ele>301.91967773438</ele>
        <time>2021-03-15T15:22:07.004Z</time>
      </trkpt>
      <trkpt lat="44.45728" lon="1.56906">
        <ele>315.04553222656</ele>
        <time>2021-03-15T15:22:08.567Z</time>
      </trkpt>
      <trkpt lat="44.45674" lon="1.56916">
        <ele>316</ele>
        <time>2021-03-15T15:22:10.141Z</time>
      </trkpt>
      <trkpt lat="44.45623" lon="1.56941">
        <ele>318.52822875977</ele>
        <time>2021-03-15T15:22:11.726Z</time>
      </trkpt>
      <trkpt lat="44.45564" lon="1.56981">
        <ele>317.6516418457</ele>
        <time>2021-03-15T15:22:13.324Z</time>
      </trkpt>
      <trkpt lat="44.45525" lon="1.56997">
        <ele>320.93258666992</ele>
        <time>2021-03-15T15:22:14.930Z</time>
      </trkpt>
      <trkpt lat="44.45531" lon="1.57013">
        <ele>320.67864990234</ele>
        <time>2021-03-15T15:22:16.539Z</time>
      </trkpt>
      <trkpt lat="44.45519" lon="1.57026">
        <ele>321.2712097168</ele>
        <time>2021-03-15T15:22:18.151Z</time>
      </trkpt>
      <trkpt lat="44.45504" lon="1.57052">
        <ele>321.62210083008</ele>
        <time>2021-03-15T15:22:19.768Z</time>
      </trkpt>
      <trkpt lat="44.45406" lon="1.57123">
        <ele>320.32385253906</ele>
        <time>2021-03-15T15:22:21.407Z</time>
      </trkpt>
      <trkpt lat="44.45351" lon="1.57239">
        <ele>317.3649597168</ele>
        <time>2021-03-15T15:22:23.066Z</time>
      </trkpt>
      <trkpt lat="44.45359" lon="1.57287">
        <ele>317.681640625</ele>
        <time>2021-03-15T15:22:24.732Z</time>
      </trkpt>
      <trkpt lat="44.45354" lon="1.57334">
        <ele>316</ele>
        <time>2021-03-15T15:22:26.405Z</time>
      </trkpt>
      <trkpt lat="44.45322" lon="1.57402">
        <ele>318.63876342773</ele>
        <time>2021-03-15T15:22:28.089Z</time>
      </trkpt>
      <trkpt lat="44.45279" lon="1.57472">
        <ele>318.91729736328</ele>
        <time>2021-03-15T15:22:29.786Z</time>
      </trkpt>
      <trkpt lat="44.45233" lon="1.57557">
        <ele>322.36502075195</ele>
        <time>2021-03-15T15:22:31.499Z</time>
      </trkpt>
      <trkpt lat="44.45171" lon="1.57695">
        <ele>326.49896240234</ele>
        <time>2021-03-15T15:22:33.235Z</time>
      </trkpt>
      <trkpt lat="44.45161" lon="1.5774">
        <ele>326.22189331055</ele>
        <time>2021-03-15T15:22:34.978Z</time>
      </trkpt>
      <trkpt lat="44.45124" lon="1.57832">
        <ele>325.28564453125</ele>
        <time>2021-03-15T15:22:36.736Z</time>
      </trkpt>
      <trkpt lat="44.45062" lon="1.57933">
        <ele>325.58010864258</ele>
        <time>2021-03-15T15:22:38.513Z</time>
      </trkpt>
      <trkpt lat="44.45043" lon="1.57981">
        <ele>326.43133544922</ele>
        <time>2021-03-15T15:22:40.298Z</time>
      </trkpt>
      <trkpt lat="44.45029" lon="1.58073">
        <ele>324.82748413086</ele>
        <time>2021-03-15T15:22:42.096Z</time>
      </trkpt>
      <trkpt lat="44.45025" lon="1.58198">
        <ele>319.65658569336</ele>
        <time>2021-03-15T15:22:43.912Z</time>
      </trkpt>
      <trkpt lat="44.45032" lon="1.58214">
        <ele>319.56289672852</ele>
        <time>2021-03-15T15:22:45.731Z</time>
      </trkpt>
      <trkpt lat="44.45008" lon="1.58332">
        <ele>309.48291015625</ele>
        <time>2021-03-15T15:22:47.567Z</time>
      </trkpt>
      <trkpt lat="44.44992" lon="1.58373">
        <ele>306.04827880859</ele>
        <time>2021-03-15T15:22:49.410Z</time>
      </trkpt>
      <trkpt lat="44.44966" lon="1.58386">
        <ele>301.95794677734</ele>
        <time>2021-03-15T15:22:51.259Z</time>
      </trkpt>
      <trkpt lat="44.4493" lon="1.58399">
        <ele>297.15213012695</ele>
        <time>2021-03-15T15:22:53.115Z</time>
      </trkpt>
      <trkpt lat="44.4486" lon="1.58406">
        <ele>290.08670043945</ele>
        <time>2021-03-15T15:22:54.985Z</time>
      </trkpt>
      <trkpt lat="44.44877" lon="1.58327">
        <ele>288.55841064453</ele>
        <time>2021-03-15T15:22:56.867Z</time>
      </trkpt>
      <trkpt lat="44.44847" lon="1.57826">
        <ele>289.14685058594</ele>
        <time>2021-03-15T15:22:58.821Z</time>
      </trkpt>
      <trkpt lat="44.44847" lon="1.57763">
        <ele>289.02093505859</ele>
        <time>2021-03-15T15:23:00.784Z</time>
      </trkpt>
      <trkpt lat="44.44859" lon="1.57729">
        <ele>287.4755859375</ele>
        <time>2021-03-15T15:23:02.752Z</time>
      </trkpt>
      <trkpt lat="44.44906" lon="1.57668">
        <ele>288.27731323242</ele>
        <time>2021-03-15T15:23:04.733Z</time>
      </trkpt>
      <trkpt lat="44.44989" lon="1.57589">
        <ele>291.12890625</ele>
        <time>2021-03-15T15:23:06.734Z</time>
      </trkpt>
      <trkpt lat="44.45002" lon="1.57538">
        <ele>288.90246582031</ele>
        <time>2021-03-15T15:23:08.743Z</time>
      </trkpt>
      <trkpt lat="44.44983" lon="1.57542">
        <ele>285.62738037109</ele>
        <time>2021-03-15T15:23:10.756Z</time>
      </trkpt>
      <trkpt lat="44.44923" lon="1.57433">
        <ele>272.14239501953</ele>
        <time>2021-03-15T15:23:12.789Z</time>
      </trkpt>
      <trkpt lat="44.44905" lon="1.57428">
        <ele>269.56030273438</ele>
        <time>2021-03-15T15:23:14.825Z</time>
      </trkpt>
      <trkpt lat="44.44874" lon="1.5744">
        <ele>264.09146118164</ele>
        <time>2021-03-15T15:23:16.868Z</time>
      </trkpt>
      <trkpt lat="44.44867" lon="1.57423">
        <ele>262.57989501953</ele>
        <time>2021-03-15T15:23:18.914Z</time>
      </trkpt>
      <trkpt lat="44.44869" lon="1.57354">
        <ele>257.68792724609</ele>
        <time>2021-03-15T15:23:20.969Z</time>
      </trkpt>
      <trkpt lat="44.44878" lon="1.57324">
        <ele>254.59072875977</ele>
        <time>2021-03-15T15:23:23.029Z</time>
      </trkpt>
      <trkpt lat="44.44896" lon="1.57301">
        <ele>252.42910766602</ele>
        <time>2021-03-15T15:23:25.094Z</time>
      </trkpt>
      <trkpt lat="44.44957" lon="1.57278">
        <ele>247.74096679688</ele>
        <time>2021-03-15T15:23:27.172Z</time>
      </trkpt>
      <trkpt lat="44.44992" lon="1.57275">
        <ele>249.00593566895</ele>
        <time>2021-03-15T15:23:29.257Z</time>
      </trkpt>
      <trkpt lat="44.4501" lon="1.57266">
        <ele>249.65298461914</ele>
        <time>2021-03-15T15:23:31.345Z</time>
      </trkpt>
      <trkpt lat="44.45023" lon="1.57245">
        <ele>249.64120483398</ele>
        <time>2021-03-15T15:23:33.437Z</time>
      </trkpt>
      <trkpt lat="44.45022" lon="1.57227">
        <ele>250.10908508301</ele>
        <time>2021-03-15T15:23:35.532Z</time>
      </trkpt>
      <trkpt lat="44.44827" lon="1.57155">
        <ele>229.94573974609</ele>
        <time>2021-03-15T15:23:37.667Z</time>
      </trkpt>
      <trkpt lat="44.44751" lon="1.57185">
        <ele>220.67726135254</ele>
        <time>2021-03-15T15:23:39.818Z</time>
      </trkpt>
      <trkpt lat="44.4473" lon="1.57175">
        <ele>219.43710327148</ele>
        <time>2021-03-15T15:23:41.974Z</time>
      </trkpt>
      <trkpt lat="44.44708" lon="1.57153">
        <ele>217.16361999512</ele>
        <time>2021-03-15T15:23:44.135Z</time>
      </trkpt>
      <trkpt lat="44.44681" lon="1.57119">
        <ele>212.92034912109</ele>
        <time>2021-03-15T15:23:46.303Z</time>
      </trkpt>
      <trkpt lat="44.44639" lon="1.57076">
        <ele>207.23037719727</ele>
        <time>2021-03-15T15:23:48.482Z</time>
      </trkpt>
      <trkpt lat="44.44616" lon="1.57075">
        <ele>205.45965576172</ele>
        <time>2021-03-15T15:23:50.665Z</time>
      </trkpt>
      <trkpt lat="44.44621" lon="1.56997">
        <ele>205.22932434082</ele>
        <time>2021-03-15T15:23:52.860Z</time>
      </trkpt>
      <trkpt lat="44.44654" lon="1.56843">
        <ele>198.54640197754</ele>
        <time>2021-03-15T15:23:55.078Z</time>
      </trkpt>
      <trkpt lat="44.44654" lon="1.56821">
        <ele>197.58467102051</ele>
        <time>2021-03-15T15:23:57.299Z</time>
      </trkpt>
      <trkpt lat="44.4464" lon="1.56784">
        <ele>193.71769714355</ele>
        <time>2021-03-15T15:23:59.526Z</time>
      </trkpt>
      <trkpt lat="44.4464" lon="1.5673">
        <ele>193.86781311035</ele>
        <time>2021-03-15T15:24:01.760Z</time>
      </trkpt>
      <trkpt lat="44.4465" lon="1.5662">
        <ele>191.37573242188</ele>
        <time>2021-03-15T15:24:04.010Z</time>
      </trkpt>
      <trkpt lat="44.44655" lon="1.56595">
        <ele>189.69563293457</ele>
        <time>2021-03-15T15:24:06.264Z</time>
      </trkpt>
      <trkpt lat="44.44666" lon="1.56567">
        <ele>188.49298095703</ele>
        <time>2021-03-15T15:24:08.523Z</time>
      </trkpt>
      <trkpt lat="44.4467" lon="1.56529">
        <ele>189.93023681641</ele>
        <time>2021-03-15T15:24:10.787Z</time>
      </trkpt>
      <trkpt lat="44.44645" lon="1.56522">
        <ele>187.54707336426</ele>
        <time>2021-03-15T15:24:13.056Z</time>
      </trkpt>
      <trkpt lat="44.44627" lon="1.56369">
        <ele>185.50285339355</ele>
        <time>2021-03-15T15:24:15.347Z</time>
      </trkpt>
      <trkpt lat="44.44594" lon="1.56311">
        <ele>184.61027526855</ele>
        <time>2021-03-15T15:24:17.649Z</time>
      </trkpt>
      <trkpt lat="44.44589" lon="1.56289">
        <ele>186.49281311035</ele>
        <time>2021-03-15T15:24:19.954Z</time>
      </trkpt>
      <trkpt lat="44.44523" lon="1.56187">
        <ele>182.07348632812</ele>
        <time>2021-03-15T15:24:22.279Z</time>
      </trkpt>
      <trkpt lat="44.44495" lon="1.5616">
        <ele>179.3532409668</ele>
        <time>2021-03-15T15:24:24.611Z</time>
      </trkpt>
      <trkpt lat="44.44485" lon="1.56143">
        <ele>179.85710144043</ele>
        <time>2021-03-15T15:24:26.946Z</time>
      </trkpt>
      <trkpt lat="44.44485" lon="1.56107">
        <ele>179.15756225586</ele>
        <time>2021-03-15T15:24:29.286Z</time>
      </trkpt>
      <trkpt lat="44.44458" lon="1.56027">
        <ele>174.08825683594</ele>
        <time>2021-03-15T15:24:31.639Z</time>
      </trkpt>
      <trkpt lat="44.44458" lon="1.55999">
        <ele>176.08680725098</ele>
        <time>2021-03-15T15:24:33.996Z</time>
      </trkpt>
      <trkpt lat="44.44452" lon="1.55977">
        <ele>176.08535766602</ele>
        <time>2021-03-15T15:24:36.356Z</time>
      </trkpt>
      <trkpt lat="44.44448" lon="1.55937">
        <ele>173.44631958008</ele>
        <time>2021-03-15T15:24:38.722Z</time>
      </trkpt>
      <trkpt lat="44.44428" lon="1.55891">
        <ele>167.96162414551</ele>
        <time>2021-03-15T15:24:41.096Z</time>
      </trkpt>
      <trkpt lat="44.44394" lon="1.5588">
        <ele>167.76234436035</ele>
        <time>2021-03-15T15:24:43.477Z</time>
      </trkpt>
      <trkpt lat="44.44366" lon="1.55853">
        <ele>166.64949035645</ele>
        <time>2021-03-15T15:24:45.865Z</time>
      </trkpt>
      <trkpt lat="44.44323" lon="1.55842">
        <ele>167.56884765625</ele>
        <time>2021-03-15T15:24:48.261Z</time>
      </trkpt>
      <trkpt lat="44.44284" lon="1.55797">
        <ele>163.5492401123</ele>
        <time>2021-03-15T15:24:50.667Z</time>
      </trkpt>
      <trkpt lat="44.44217" lon="1.55736">
        <ele>151.04809570312</ele>
        <time>2021-03-15T15:24:53.089Z</time>
      </trkpt>
      <trkpt lat="44.44216" lon="1.55606">
        <ele>150.83381652832</ele>
        <time>2021-03-15T15:24:55.530Z</time>
      </trkpt>
      <trkpt lat="44.44207" lon="1.55566">
        <ele>150.69947814941</ele>
        <time>2021-03-15T15:24:57.977Z</time>
      </trkpt>
      <trkpt lat="44.44192" lon="1.55541">
        <ele>149.45054626465</ele>
        <time>2021-03-15T15:25:00.429Z</time>
      </trkpt>
      <trkpt lat="44.44143" lon="1.55441">
        <ele>150.94828796387</ele>
        <time>2021-03-15T15:25:02.898Z</time>
      </trkpt>
      <trkpt lat="44.44072" lon="1.55339">
        <ele>150</ele>
        <time>2021-03-15T15:25:05.387Z</time>
      </trkpt>
      <trkpt lat="44.44071" lon="1.55292">
        <ele>150.15417480469</ele>
        <time>2021-03-15T15:25:07.883Z</time>
      </trkpt>
      <trkpt lat="44.4409" lon="1.55225">
        <ele>151.15051269531</ele>
        <time>2021-03-15T15:25:10.390Z</time>
      </trkpt>
      <trkpt lat="44.44146" lon="1.55072">
        <ele>147.9122467041</ele>
        <time>2021-03-15T15:25:12.921Z</time>
      </trkpt>
      <trkpt lat="44.44152" lon="1.55032">
        <ele>146</ele>
        <time>2021-03-15T15:25:15.458Z</time>
      </trkpt>
      <trkpt lat="44.44146" lon="1.5501">
        <ele>146.0046081543</ele>
        <time>2021-03-15T15:25:17.998Z</time>
      </trkpt>
      <trkpt lat="44.44133" lon="1.54999">
        <ele>145.98139953613</ele>
        <time>2021-03-15T15:25:20.541Z</time>
      </trkpt>
      <trkpt lat="44.44078" lon="1.54931">
        <ele>144.60160827637</ele>
        <time>2021-03-15T15:25:23.099Z</time>
      </trkpt>
      <trkpt lat="44.44068" lon="1.54907">
        <ele>143.52191162109</ele>
        <time>2021-03-15T15:25:25.661Z</time>
      </trkpt>
      <trkpt lat="44.44022" lon="1.5495">
        <ele>142.74801635742</ele>
        <time>2021-03-15T15:25:28.234Z</time>
      </trkpt>
      <trkpt lat="44.43986" lon="1.54897">
        <ele>148.75184631348</ele>
        <time>2021-03-15T15:25:30.818Z</time>
      </trkpt>
      <trkpt lat="44.43859" lon="1.54962">
        <ele>149.29664611816</ele>
        <time>2021-03-15T15:25:33.429Z</time>
      </trkpt>
      <trkpt lat="44.438" lon="1.54892">
        <ele>157.20111083984</ele>
        <time>2021-03-15T15:25:36.055Z</time>
      </trkpt>
      <trkpt lat="44.43747" lon="1.5485">
        <ele>159.44848632812</ele>
        <time>2021-03-15T15:25:38.693Z</time>
      </trkpt>
      <trkpt lat="44.4371" lon="1.54844">
        <ele>160.67114257812</ele>
        <time>2021-03-15T15:25:41.339Z</time>
      </trkpt>
      <trkpt lat="44.43662" lon="1.54845">
        <ele>160.84776306152</ele>
        <time>2021-03-15T15:25:43.994Z</time>
      </trkpt>
      <trkpt lat="44.43619" lon="1.54862">
        <ele>161.6688079834</ele>
        <time>2021-03-15T15:25:46.658Z</time>
      </trkpt>
      <trkpt lat="44.43537" lon="1.54969">
        <ele>172.26609802246</ele>
        <time>2021-03-15T15:25:49.345Z</time>
      </trkpt>
      <trkpt lat="44.43517" lon="1.54982">
        <ele>172.94856262207</ele>
        <time>2021-03-15T15:25:52.036Z</time>
      </trkpt>
      <trkpt lat="44.43473" lon="1.54992">
        <ele>175.81349182129</ele>
        <time>2021-03-15T15:25:54.736Z</time>
      </trkpt>
      <trkpt lat="44.43352" lon="1.54992">
        <ele>181.12252807617</ele>
        <time>2021-03-15T15:25:57.460Z</time>
      </trkpt>
      <trkpt lat="44.43328" lon="1.54996">
        <ele>182.08303833008</ele>
        <time>2021-03-15T15:26:00.189Z</time>
      </trkpt>
      <trkpt lat="44.43312" lon="1.55004">
        <ele>182.49624633789</ele>
        <time>2021-03-15T15:26:02.922Z</time>
      </trkpt>
      <trkpt lat="44.43295" lon="1.55018">
        <ele>183.31297302246</ele>
        <time>2021-03-15T15:26:05.659Z</time>
      </trkpt>
      <trkpt lat="44.43264" lon="1.55022">
        <ele>184.63194274902</ele>
        <time>2021-03-15T15:26:08.402Z</time>
      </trkpt>
      <trkpt lat="44.43203" lon="1.55049">
        <ele>189.24809265137</ele>
        <time>2021-03-15T15:26:11.158Z</time>
      </trkpt>
      <trkpt lat="44.43138" lon="1.55051">
        <ele>193.67570495605</ele>
        <time>2021-03-15T15:26:13.927Z</time>
      </trkpt>
      <trkpt lat="44.43086" lon="1.55039">
        <ele>197.5421295166</ele>
        <time>2021-03-15T15:26:16.706Z</time>
      </trkpt>
      <trkpt lat="44.43031" lon="1.55055">
        <ele>199.92945861816</ele>
        <time>2021-03-15T15:26:19.496Z</time>
      </trkpt>
      <trkpt lat="44.43" lon="1.55033">
        <ele>200.93002319336</ele>
        <time>2021-03-15T15:26:22.293Z</time>
      </trkpt>
      <trkpt lat="44.42932" lon="1.55019">
        <ele>204.75468444824</ele>
        <time>2021-03-15T15:26:25.104Z</time>
      </trkpt>
      <trkpt lat="44.42885" lon="1.55019">
        <ele>207.77156066895</ele>
        <time>2021-03-15T15:26:27.924Z</time>
      </trkpt>
      <trkpt lat="44.42815" lon="1.55005">
        <ele>211.12995910645</ele>
        <time>2021-03-15T15:26:30.759Z</time>
      </trkpt>
      <trkpt lat="44.42767" lon="1.54999">
        <ele>215.09080505371</ele>
        <time>2021-03-15T15:26:33.603Z</time>
      </trkpt>
      <trkpt lat="44.42709" lon="1.54984">
        <ele>220.55456542969</ele>
        <time>2021-03-15T15:26:36.459Z</time>
      </trkpt>
      <trkpt lat="44.42644" lon="1.54982">
        <ele>223.787109375</ele>
        <time>2021-03-15T15:26:39.328Z</time>
      </trkpt>
      <trkpt lat="44.4253" lon="1.55034">
        <ele>231.5590057373</ele>
        <time>2021-03-15T15:26:42.221Z</time>
      </trkpt>
      <trkpt lat="44.42472" lon="1.55042">
        <ele>235.52885437012</ele>
        <time>2021-03-15T15:26:45.126Z</time>
      </trkpt>
      <trkpt lat="44.42422" lon="1.55045">
        <ele>235.8713684082</ele>
        <time>2021-03-15T15:26:48.041Z</time>
      </trkpt>
      <trkpt lat="44.42384" lon="1.55019">
        <ele>238.29959106445</ele>
        <time>2021-03-15T15:26:50.964Z</time>
      </trkpt>
      <trkpt lat="44.42342" lon="1.54973">
        <ele>242.22288513184</ele>
        <time>2021-03-15T15:26:53.898Z</time>
      </trkpt>
      <trkpt lat="44.42221" lon="1.54936">
        <ele>249.86492919922</ele>
        <time>2021-03-15T15:26:56.857Z</time>
      </trkpt>
      <trkpt lat="44.42125" lon="1.54917">
        <ele>256.54156494141</ele>
        <time>2021-03-15T15:26:59.835Z</time>
      </trkpt>
      <trkpt lat="44.41993" lon="1.54831">
        <ele>243.35185241699</ele>
        <time>2021-03-15T15:27:02.842Z</time>
      </trkpt>
      <trkpt lat="44.41928" lon="1.54841">
        <ele>236.18238830566</ele>
        <time>2021-03-15T15:27:05.862Z</time>
      </trkpt>
      <trkpt lat="44.41875" lon="1.5488">
        <ele>230.53123474121</ele>
        <time>2021-03-15T15:27:08.894Z</time>
      </trkpt>
      <trkpt lat="44.41695" lon="1.54948">
        <ele>226.81843566895</ele>
        <time>2021-03-15T15:27:11.963Z</time>
      </trkpt>
      <trkpt lat="44.41636" lon="1.54941">
        <ele>229.21415710449</ele>
        <time>2021-03-15T15:27:15.044Z</time>
      </trkpt>
      <trkpt lat="44.4158" lon="1.54919">
        <ele>229.89352416992</ele>
        <time>2021-03-15T15:27:18.137Z</time>
      </trkpt>
      <trkpt lat="44.41509" lon="1.54878">
        <ele>226.84965515137</ele>
        <time>2021-03-15T15:27:21.245Z</time>
      </trkpt>
      <trkpt lat="44.41451" lon="1.54833">
        <ele>228.44209289551</ele>
        <time>2021-03-15T15:27:24.367Z</time>
      </trkpt>
      <trkpt lat="44.41332" lon="1.5472">
        <ele>218.2818145752</ele>
        <time>2021-03-15T15:27:27.517Z</time>
      </trkpt>
      <trkpt lat="44.41282" lon="1.54762">
        <ele>220.13729858398</ele>
        <time>2021-03-15T15:27:30.679Z</time>
      </trkpt>
      <trkpt lat="44.4126" lon="1.54772">
        <ele>220.80833435059</ele>
        <time>2021-03-15T15:27:33.846Z</time>
      </trkpt>
      <trkpt lat="44.41131" lon="1.54784">
        <ele>225.01916503906</ele>
        <time>2021-03-15T15:27:37.039Z</time>
      </trkpt>
      <trkpt lat="44.41001" lon="1.54825">
        <ele>229.57051086426</ele>
        <time>2021-03-15T15:27:40.258Z</time>
      </trkpt>
      <trkpt lat="44.40884" lon="1.54827">
        <ele>229.63737487793</ele>
        <time>2021-03-15T15:27:43.501Z</time>
      </trkpt>
      <trkpt lat="44.4084" lon="1.54903">
        <ele>226.87786865234</ele>
        <time>2021-03-15T15:27:46.758Z</time>
      </trkpt>
      <trkpt lat="44.4076" lon="1.55">
        <ele>227.59761047363</ele>
        <time>2021-03-15T15:27:50.036Z</time>
      </trkpt>
      <trkpt lat="44.40729" lon="1.55059">
        <ele>226.66331481934</ele>
        <time>2021-03-15T15:27:53.324Z</time>
      </trkpt>
      <trkpt lat="44.4068" lon="1.5513">
        <ele>230.65176391602</ele>
        <time>2021-03-15T15:27:56.626Z</time>
      </trkpt>
      <trkpt lat="44.40632" lon="1.55192">
        <ele>236.18322753906</ele>
        <time>2021-03-15T15:27:59.942Z</time>
      </trkpt>
      <trkpt lat="44.40603" lon="1.55239">
        <ele>241.69741821289</ele>
        <time>2021-03-15T15:28:03.266Z</time>
      </trkpt>
      <trkpt lat="44.40576" lon="1.55274">
        <ele>246.15084838867</ele>
        <time>2021-03-15T15:28:06.598Z</time>
      </trkpt>
      <trkpt lat="44.40549" lon="1.55288">
        <ele>248.45664978027</ele>
        <time>2021-03-15T15:28:09.936Z</time>
      </trkpt>
      <trkpt lat="44.40515" lon="1.55299">
        <ele>249.15240478516</ele>
        <time>2021-03-15T15:28:13.281Z</time>
      </trkpt>
      <trkpt lat="44.40466" lon="1.55321">
        <ele>252.37411499023</ele>
        <time>2021-03-15T15:28:16.636Z</time>
      </trkpt>
      <trkpt lat="44.40426" lon="1.55358">
        <ele>252.43171691895</ele>
        <time>2021-03-15T15:28:20.000Z</time>
      </trkpt>
      <trkpt lat="44.40395" lon="1.55383">
        <ele>252.31602478027</ele>
        <time>2021-03-15T15:28:23.372Z</time>
      </trkpt>
      <trkpt lat="44.40316" lon="1.55425">
        <ele>251.47280883789</ele>
        <time>2021-03-15T15:28:26.761Z</time>
      </trkpt>
      <trkpt lat="44.4031" lon="1.55513">
        <ele>252.41288757324</ele>
        <time>2021-03-15T15:28:30.162Z</time>
      </trkpt>
      <trkpt lat="44.40181" lon="1.55605">
        <ele>243.59977722168</ele>
        <time>2021-03-15T15:28:33.592Z</time>
      </trkpt>
      <trkpt lat="44.40162" lon="1.55732">
        <ele>237</ele>
        <time>2021-03-15T15:28:37.041Z</time>
      </trkpt>
      <trkpt lat="44.40147" lon="1.55751">
        <ele>236.41200256348</ele>
        <time>2021-03-15T15:28:40.494Z</time>
      </trkpt>
      <trkpt lat="44.40081" lon="1.55819">
        <ele>234.58934020996</ele>
        <time>2021-03-15T15:28:43.963Z</time>
      </trkpt>
      <trkpt lat="44.40017" lon="1.55871">
        <ele>234.99089050293</ele>
        <time>2021-03-15T15:28:47.447Z</time>
      </trkpt>
      <trkpt lat="44.39924" lon="1.55992">
        <ele>243.55790710449</ele>
        <time>2021-03-15T15:28:50.956Z</time>
      </trkpt>
      <trkpt lat="44.39803" lon="1.56126">
        <ele>252.99005126953</ele>
        <time>2021-03-15T15:28:54.496Z</time>
      </trkpt>
      <trkpt lat="44.39775" lon="1.56145">
        <ele>254</ele>
        <time>2021-03-15T15:28:58.043Z</time>
      </trkpt>
      <trkpt lat="44.39721" lon="1.56164">
        <ele>252.11752319336</ele>
        <time>2021-03-15T15:29:01.601Z</time>
      </trkpt>
      <trkpt lat="44.39618" lon="1.56182">
        <ele>241.05537414551</ele>
        <time>2021-03-15T15:29:05.180Z</time>
      </trkpt>
      <trkpt lat="44.39574" lon="1.56197">
        <ele>236.53646850586</ele>
        <time>2021-03-15T15:29:08.768Z</time>
      </trkpt>
      <trkpt lat="44.39388" lon="1.56384">
        <ele>213.71946716309</ele>
        <time>2021-03-15T15:29:12.401Z</time>
      </trkpt>
      <trkpt lat="44.39409" lon="1.56426">
        <ele>212</ele>
        <time>2021-03-15T15:29:16.042Z</time>
      </trkpt>
      <trkpt lat="44.3943" lon="1.56476">
        <ele>213.58567810059</ele>
        <time>2021-03-15T15:29:19.691Z</time>
      </trkpt>
      <trkpt lat="44.39425" lon="1.56526">
        <ele>215.46504211426</ele>
        <time>2021-03-15T15:29:23.347Z</time>
      </trkpt>
      <trkpt lat="44.39447" lon="1.56607">
        <ele>215.80654907227</ele>
        <time>2021-03-15T15:29:27.016Z</time>
      </trkpt>
      <trkpt lat="44.39462" lon="1.56747">
        <ele>205</ele>
        <time>2021-03-15T15:29:30.705Z</time>
      </trkpt>
      <trkpt lat="44.39518" lon="1.56858">
        <ele>205.68614196777</ele>
        <time>2021-03-15T15:29:34.414Z</time>
      </trkpt>
      <trkpt lat="44.3959" lon="1.57074">
        <ele>201.34407043457</ele>
        <time>2021-03-15T15:29:38.157Z</time>
      </trkpt>
      <trkpt lat="44.39645" lon="1.57169">
        <ele>202.90414428711</ele>
        <time>2021-03-15T15:29:41.917Z</time>
      </trkpt>
      <trkpt lat="44.39684" lon="1.57254">
        <ele>200.69409179688</ele>
        <time>2021-03-15T15:29:45.692Z</time>
      </trkpt>
      <trkpt lat="44.39702" lon="1.57283">
        <ele>198.6544342041</ele>
        <time>2021-03-15T15:29:49.472Z</time>
      </trkpt>
      <trkpt lat="44.3972" lon="1.57288">
        <ele>198.09181213379</ele>
        <time>2021-03-15T15:29:53.256Z</time>
      </trkpt>
      <trkpt lat="44.39771" lon="1.57278">
        <ele>193.68424987793</ele>
        <time>2021-03-15T15:29:57.050Z</time>
      </trkpt>
      <trkpt lat="44.39789" lon="1.57281">
        <ele>192.45071411133</ele>
        <time>2021-03-15T15:30:00.848Z</time>
      </trkpt>
      <trkpt lat="44.39828" lon="1.57326">
        <ele>190.33723449707</ele>
        <time>2021-03-15T15:30:04.656Z</time>
      </trkpt>
      <trkpt lat="44.39873" lon="1.57353">
        <ele>192.52923583984</ele>
        <time>2021-03-15T15:30:08.474Z</time>
      </trkpt>
      <trkpt lat="44.39796" lon="1.5745">
        <ele>195.86959838867</ele>
        <time>2021-03-15T15:30:12.312Z</time>
      </trkpt>
      <trkpt lat="44.39719" lon="1.57531">
        <ele>197.0528717041</ele>
        <time>2021-03-15T15:30:16.170Z</time>
      </trkpt>
      <trkpt lat="44.39718" lon="1.57569">
        <ele>197.14762878418</ele>
        <time>2021-03-15T15:30:20.033Z</time>
      </trkpt>
      <trkpt lat="44.39725" lon="1.57599">
        <ele>199.88314819336</ele>
        <time>2021-03-15T15:30:23.901Z</time>
      </trkpt>
      <trkpt lat="44.39722" lon="1.57623">
        <ele>201.90814208984</ele>
        <time>2021-03-15T15:30:27.772Z</time>
      </trkpt>
      <trkpt lat="44.39716" lon="1.57641">
        <ele>202.51486206055</ele>
        <time>2021-03-15T15:30:31.646Z</time>
      </trkpt>
      <trkpt lat="44.39689" lon="1.57679">
        <ele>202.00877380371</ele>
        <time>2021-03-15T15:30:35.528Z</time>
      </trkpt>
      <trkpt lat="44.39671" lon="1.57691">
        <ele>202.11674499512</ele>
        <time>2021-03-15T15:30:39.414Z</time>
      </trkpt>
      <trkpt lat="44.39647" lon="1.57702">
        <ele>202.58500671387</ele>
        <time>2021-03-15T15:30:43.305Z</time>
      </trkpt>
      <trkpt lat="44.39602" lon="1.57705">
        <ele>199.07891845703</ele>
        <time>2021-03-15T15:30:47.205Z</time>
      </trkpt>
      <trkpt lat="44.39592" lon="1.5772">
        <ele>198.83210754395</ele>
        <time>2021-03-15T15:30:51.108Z</time>
      </trkpt>
      <trkpt lat="44.39593" lon="1.5774">
        <ele>199.01466369629</ele>
        <time>2021-03-15T15:30:55.014Z</time>
      </trkpt>
      <trkpt lat="44.39634" lon="1.57807">
        <ele>203.7105255127</ele>
        <time>2021-03-15T15:30:58.932Z</time>
      </trkpt>
      <trkpt lat="44.39639" lon="1.57865">
        <ele>204.5841217041</ele>
        <time>2021-03-15T15:31:02.859Z</time>
      </trkpt>
      <trkpt lat="44.39634" lon="1.57914">
        <ele>203.9580078125</ele>
        <time>2021-03-15T15:31:06.793Z</time>
      </trkpt>
      <trkpt lat="44.39616" lon="1.57984">
        <ele>204.8394317627</ele>
        <time>2021-03-15T15:31:10.737Z</time>
      </trkpt>
      <trkpt lat="44.39613" lon="1.58067">
        <ele>205.3747253418</ele>
        <time>2021-03-15T15:31:14.693Z</time>
      </trkpt>
      <trkpt lat="44.39595" lon="1.58104">
        <ele>203.90908813477</ele>
        <time>2021-03-15T15:31:18.656Z</time>
      </trkpt>
      <trkpt lat="44.39566" lon="1.58132">
        <ele>203.84898376465</ele>
        <time>2021-03-15T15:31:22.626Z</time>
      </trkpt>
      <trkpt lat="44.39547" lon="1.58142">
        <ele>204.3763885498</ele>
        <time>2021-03-15T15:31:26.600Z</time>
      </trkpt>
      <trkpt lat="44.39499" lon="1.58141">
        <ele>206.95796203613</ele>
        <time>2021-03-15T15:31:30.583Z</time>
      </trkpt>
      <trkpt lat="44.39481" lon="1.58148">
        <ele>206.01382446289</ele>
        <time>2021-03-15T15:31:34.570Z</time>
      </trkpt>
      <trkpt lat="44.3947" lon="1.58165">
        <ele>203.56651306152</ele>
        <time>2021-03-15T15:31:38.560Z</time>
      </trkpt>
      <trkpt lat="44.39421" lon="1.58219">
        <ele>202.52351379395</ele>
        <time>2021-03-15T15:31:42.563Z</time>
      </trkpt>
      <trkpt lat="44.39403" lon="1.58266">
        <ele>203.44248962402</ele>
        <time>2021-03-15T15:31:46.574Z</time>
      </trkpt>
      <trkpt lat="44.3939" lon="1.58325">
        <ele>206.25604248047</ele>
        <time>2021-03-15T15:31:50.593Z</time>
      </trkpt>
      <trkpt lat="44.39381" lon="1.58333">
        <ele>205.28863525391</ele>
        <time>2021-03-15T15:31:54.615Z</time>
      </trkpt>
      <trkpt lat="44.39345" lon="1.58345">
        <ele>203.28353881836</ele>
        <time>2021-03-15T15:31:58.644Z</time>
      </trkpt>
      <trkpt lat="44.39309" lon="1.58393">
        <ele>205.435546875</ele>
        <time>2021-03-15T15:32:02.683Z</time>
      </trkpt>
      <trkpt lat="44.39262" lon="1.58434">
        <ele>207.30224609375</ele>
        <time>2021-03-15T15:32:06.733Z</time>
      </trkpt>
      <trkpt lat="44.39186" lon="1.58468">
        <ele>209.14251708984</ele>
        <time>2021-03-15T15:32:10.799Z</time>
      </trkpt>
      <trkpt lat="44.39139" lon="1.58478">
        <ele>206.73219299316</ele>
        <time>2021-03-15T15:32:14.874Z</time>
      </trkpt>
      <trkpt lat="44.39108" lon="1.5848">
        <ele>207.42054748535</ele>
        <time>2021-03-15T15:32:18.956Z</time>
      </trkpt>
      <trkpt lat="44.39018" lon="1.58469">
        <ele>210.84754943848</ele>
        <time>2021-03-15T15:32:23.056Z</time>
      </trkpt>
      <trkpt lat="44.38977" lon="1.58472">
        <ele>212.08447265625</ele>
        <time>2021-03-15T15:32:27.164Z</time>
      </trkpt>
      <trkpt lat="44.38953" lon="1.58484">
        <ele>211.56401062012</ele>
        <time>2021-03-15T15:32:31.277Z</time>
      </trkpt>
      <trkpt lat="44.38941" lon="1.58508">
        <ele>209.02688598633</ele>
        <time>2021-03-15T15:32:35.394Z</time>
      </trkpt>
      <trkpt lat="44.38936" lon="1.58715">
        <ele>223.76522827148</ele>
        <time>2021-03-15T15:32:39.541Z</time>
      </trkpt>
      <trkpt lat="44.38928" lon="1.58762">
        <ele>227.62666320801</ele>
        <time>2021-03-15T15:32:43.695Z</time>
      </trkpt>
      <trkpt lat="44.38814" lon="1.59124">
        <ele>241.99305725098</ele>
        <time>2021-03-15T15:32:47.906Z</time>
      </trkpt>
      <trkpt lat="44.38819" lon="1.59233">
        <ele>246.78294372559</ele>
        <time>2021-03-15T15:32:52.132Z</time>
      </trkpt>
      <trkpt lat="44.38813" lon="1.59261">
        <ele>247.74635314941</ele>
        <time>2021-03-15T15:32:56.362Z</time>
      </trkpt>
      <trkpt lat="44.38803" lon="1.59281">
        <ele>248.12619018555</ele>
        <time>2021-03-15T15:33:00.596Z</time>
      </trkpt>
      <trkpt lat="44.38765" lon="1.59314">
        <ele>249.76945495605</ele>
        <time>2021-03-15T15:33:04.839Z</time>
      </trkpt>
      <trkpt lat="44.38742" lon="1.59394">
        <ele>253.00471496582</ele>
        <time>2021-03-15T15:33:09.094Z</time>
      </trkpt>
      <trkpt lat="44.38737" lon="1.59499">
        <ele>259.25170898438</ele>
        <time>2021-03-15T15:33:13.364Z</time>
      </trkpt>
      <trkpt lat="44.38697" lon="1.5971">
        <ele>265.20498657227</ele>
        <time>2021-03-15T15:33:17.666Z</time>
      </trkpt>
      <trkpt lat="44.38696" lon="1.59731">
        <ele>265.16900634766</ele>
        <time>2021-03-15T15:33:21.971Z</time>
      </trkpt>
      <trkpt lat="44.38774" lon="1.59802">
        <ele>268.95245361328</ele>
        <time>2021-03-15T15:33:26.294Z</time>
      </trkpt>
      <trkpt lat="44.38821" lon="1.59854">
        <ele>270.02227783203</ele>
        <time>2021-03-15T15:33:30.629Z</time>
      </trkpt>
      <trkpt lat="44.38868" lon="1.59923">
        <ele>270.12878417969</ele>
        <time>2021-03-15T15:33:34.978Z</time>
      </trkpt>
      <trkpt lat="44.38889" lon="1.59974">
        <ele>271</ele>
        <time>2021-03-15T15:33:39.335Z</time>
      </trkpt>
      <trkpt lat="44.38895" lon="1.60177">
        <ele>270.33102416992</ele>
        <time>2021-03-15T15:33:43.722Z</time>
      </trkpt>
      <trkpt lat="44.38895" lon="1.60258">
        <ele>268.66204833984</ele>
        <time>2021-03-15T15:33:48.120Z</time>
      </trkpt>
      <trkpt lat="44.38889" lon="1.6033">
        <ele>265.44653320312</ele>
        <time>2021-03-15T15:33:52.529Z</time>
      </trkpt>
      <trkpt lat="44.38889" lon="1.60361">
        <ele>262.20767211914</ele>
        <time>2021-03-15T15:33:56.942Z</time>
      </trkpt>
      <trkpt lat="44.38905" lon="1.60399">
        <ele>257.57800292969</ele>
        <time>2021-03-15T15:34:01.361Z</time>
      </trkpt>
      <trkpt lat="44.38955" lon="1.60466">
        <ele>245.66232299805</ele>
        <time>2021-03-15T15:34:05.794Z</time>
      </trkpt>
      <trkpt lat="44.38889" lon="1.60652">
        <ele>218.97972106934</ele>
        <time>2021-03-15T15:34:10.257Z</time>
      </trkpt>
      <trkpt lat="44.38882" lon="1.60729">
        <ele>220.99977111816</ele>
        <time>2021-03-15T15:34:14.731Z</time>
      </trkpt>
      <trkpt lat="44.38867" lon="1.60773">
        <ele>223.76390075684</ele>
        <time>2021-03-15T15:34:19.212Z</time>
      </trkpt>
      <trkpt lat="44.38834" lon="1.60832">
        <ele>226.84370422363</ele>
        <time>2021-03-15T15:34:23.704Z</time>
      </trkpt>
      <trkpt lat="44.3876" lon="1.61018">
        <ele>236.01022338867</ele>
        <time>2021-03-15T15:34:28.226Z</time>
      </trkpt>
      <trkpt lat="44.38738" lon="1.61066">
        <ele>239.21133422852</ele>
        <time>2021-03-15T15:34:32.756Z</time>
      </trkpt>
      <trkpt lat="44.38691" lon="1.61134">
        <ele>240.7236328125</ele>
        <time>2021-03-15T15:34:37.300Z</time>
      </trkpt>
      <trkpt lat="44.38642" lon="1.61202">
        <ele>242.25448608398</ele>
        <time>2021-03-15T15:34:41.858Z</time>
      </trkpt>
      <trkpt lat="44.38597" lon="1.61242">
        <ele>243.60600280762</ele>
        <time>2021-03-15T15:34:46.427Z</time>
      </trkpt>
      <trkpt lat="44.38517" lon="1.61282">
        <ele>246.03921508789</ele>
        <time>2021-03-15T15:34:51.013Z</time>
      </trkpt>
      <trkpt lat="44.38424" lon="1.61334">
        <ele>247.75946044922</ele>
        <time>2021-03-15T15:34:55.619Z</time>
      </trkpt>
      <trkpt lat="44.38351" lon="1.61356">
        <ele>247.95001220703</ele>
        <time>2021-03-15T15:35:00.240Z</time>
      </trkpt>
      <trkpt lat="44.38309" lon="1.61391">
        <ele>248</ele>
        <time>2021-03-15T15:35:04.870Z</time>
      </trkpt>
      <trkpt lat="44.383" lon="1.6142">
        <ele>248.08303833008</ele>
        <time>2021-03-15T15:35:09.505Z</time>
      </trkpt>
      <trkpt lat="44.38258" lon="1.61454">
        <ele>250.41871643066</ele>
        <time>2021-03-15T15:35:14.150Z</time>
      </trkpt>
      <trkpt lat="44.38233" lon="1.61485">
        <ele>252.34518432617</ele>
        <time>2021-03-15T15:35:18.801Z</time>
      </trkpt>
      <trkpt lat="44.38193" lon="1.61547">
        <ele>255.51052856445</ele>
        <time>2021-03-15T15:35:23.464Z</time>
      </trkpt>
      <trkpt lat="44.38202" lon="1.61616">
        <ele>257.05987548828</ele>
        <time>2021-03-15T15:35:28.137Z</time>
      </trkpt>
      <trkpt lat="44.38246" lon="1.61803">
        <ele>249.41999816895</ele>
        <time>2021-03-15T15:35:32.838Z</time>
      </trkpt>
      <trkpt lat="44.38248" lon="1.61848">
        <ele>247.59045410156</ele>
        <time>2021-03-15T15:35:37.546Z</time>
      </trkpt>
      <trkpt lat="44.38261" lon="1.61883">
        <ele>246.8441619873</ele>
        <time>2021-03-15T15:35:42.260Z</time>
      </trkpt>
      <trkpt lat="44.3838" lon="1.62001">
        <ele>245.16795349121</ele>
        <time>2021-03-15T15:35:47.003Z</time>
      </trkpt>
      <trkpt lat="44.38474" lon="1.62103">
        <ele>241.23376464844</ele>
        <time>2021-03-15T15:35:51.770Z</time>
      </trkpt>
      <trkpt lat="44.3857" lon="1.62153">
        <ele>237.97923278809</ele>
        <time>2021-03-15T15:35:56.557Z</time>
      </trkpt>
      <trkpt lat="44.38618" lon="1.6219">
        <ele>235.92007446289</ele>
        <time>2021-03-15T15:36:01.355Z</time>
      </trkpt>
      <trkpt lat="44.38631" lon="1.62208">
        <ele>235.53630065918</ele>
        <time>2021-03-15T15:36:06.157Z</time>
      </trkpt>
      <trkpt lat="44.38657" lon="1.62292">
        <ele>240.06159973145</ele>
        <time>2021-03-15T15:36:10.972Z</time>
      </trkpt>
      <trkpt lat="44.38675" lon="1.62316">
        <ele>242.49252319336</ele>
        <time>2021-03-15T15:36:15.792Z</time>
      </trkpt>
      <trkpt lat="44.3871" lon="1.62416">
        <ele>247.01860046387</ele>
        <time>2021-03-15T15:36:20.628Z</time>
      </trkpt>
      <trkpt lat="44.38728" lon="1.62503">
        <ele>250.94902038574</ele>
        <time>2021-03-15T15:36:25.477Z</time>
      </trkpt>
      <trkpt lat="44.38759" lon="1.62542">
        <ele>253.72346496582</ele>
        <time>2021-03-15T15:36:30.334Z</time>
      </trkpt>
      <trkpt lat="44.38791" lon="1.6257">
        <ele>255.2006072998</ele>
        <time>2021-03-15T15:36:35.199Z</time>
      </trkpt>
      <trkpt lat="44.38803" lon="1.62588">
        <ele>256.04214477539</ele>
        <time>2021-03-15T15:36:40.067Z</time>
      </trkpt>
      <trkpt lat="44.38811" lon="1.62608">
        <ele>256.76196289062</ele>
        <time>2021-03-15T15:36:44.939Z</time>
      </trkpt>
      <trkpt lat="44.3886" lon="1.62617">
        <ele>257.01449584961</ele>
        <time>2021-03-15T15:36:49.820Z</time>
      </trkpt>
      <trkpt lat="44.389" lon="1.62635">
        <ele>256.22271728516</ele>
        <time>2021-03-15T15:36:54.710Z</time>
      </trkpt>
      <trkpt lat="44.38953" lon="1.627">
        <ele>253.01704406738</ele>
        <time>2021-03-15T15:36:59.614Z</time>
      </trkpt>
      <trkpt lat="44.38986" lon="1.62721">
        <ele>249.73623657227</ele>
        <time>2021-03-15T15:37:04.525Z</time>
      </trkpt>
      <trkpt lat="44.3901" lon="1.62746">
        <ele>247.80155944824</ele>
        <time>2021-03-15T15:37:09.442Z</time>
      </trkpt>
      <trkpt lat="44.39026" lon="1.62769">
        <ele>246.39794921875</ele>
        <time>2021-03-15T15:37:14.364Z</time>
      </trkpt>
      <trkpt lat="44.39047" lon="1.62826">
        <ele>241.98295593262</ele>
        <time>2021-03-15T15:37:19.295Z</time>
      </trkpt>
      <trkpt lat="44.39068" lon="1.62866">
        <ele>239.95262145996</ele>
        <time>2021-03-15T15:37:24.233Z</time>
      </trkpt>
      <trkpt lat="44.3909" lon="1.62893">
        <ele>239.34907531738</ele>
        <time>2021-03-15T15:37:29.177Z</time>
      </trkpt>
      <trkpt lat="44.39127" lon="1.62927">
        <ele>241.16622924805</ele>
        <time>2021-03-15T15:37:34.130Z</time>
      </trkpt>
      <trkpt lat="44.39146" lon="1.62964">
        <ele>244.14878845215</ele>
        <time>2021-03-15T15:37:39.089Z</time>
      </trkpt>
      <trkpt lat="44.39157" lon="1.63002">
        <ele>245.18161010742</ele>
        <time>2021-03-15T15:37:44.054Z</time>
      </trkpt>
      <trkpt lat="44.39162" lon="1.63046">
        <ele>244.05964660645</ele>
        <time>2021-03-15T15:37:49.026Z</time>
      </trkpt>
      <trkpt lat="44.39171" lon="1.63093">
        <ele>243.9528503418</ele>
        <time>2021-03-15T15:37:54.005Z</time>
      </trkpt>
      <trkpt lat="44.39193" lon="1.63142">
        <ele>244.11207580566</ele>
        <time>2021-03-15T15:37:58.992Z</time>
      </trkpt>
      <trkpt lat="44.39243" lon="1.632">
        <ele>250.91519165039</ele>
        <time>2021-03-15T15:38:03.992Z</time>
      </trkpt>
      <trkpt lat="44.39376" lon="1.63329">
        <ele>259.64221191406</ele>
        <time>2021-03-15T15:38:09.024Z</time>
      </trkpt>
      <trkpt lat="44.3942" lon="1.63345">
        <ele>256.54846191406</ele>
        <time>2021-03-15T15:38:14.065Z</time>
      </trkpt>
      <trkpt lat="44.39441" lon="1.63358">
        <ele>255.03688049316</ele>
        <time>2021-03-15T15:38:19.111Z</time>
      </trkpt>
      <trkpt lat="44.39476" lon="1.634">
        <ele>252.03515625</ele>
        <time>2021-03-15T15:38:24.166Z</time>
      </trkpt>
      <trkpt lat="44.39577" lon="1.63551">
        <ele>246.70053100586</ele>
        <time>2021-03-15T15:38:29.251Z</time>
      </trkpt>
      <trkpt lat="44.39637" lon="1.63625">
        <ele>243.96440124512</ele>
        <time>2021-03-15T15:38:34.352Z</time>
      </trkpt>
      <trkpt lat="44.3969" lon="1.638">
        <ele>239.38101196289</ele>
        <time>2021-03-15T15:38:39.480Z</time>
      </trkpt>
      <trkpt lat="44.39735" lon="1.63797">
        <ele>241.25048828125</ele>
        <time>2021-03-15T15:38:44.617Z</time>
      </trkpt>
      <trkpt lat="44.39782" lon="1.63802">
        <ele>247.50830078125</ele>
        <time>2021-03-15T15:38:49.764Z</time>
      </trkpt>
      <trkpt lat="44.39816" lon="1.63821">
        <ele>250.85125732422</ele>
        <time>2021-03-15T15:38:54.918Z</time>
      </trkpt>
      <trkpt lat="44.39845" lon="1.63842">
        <ele>255.25970458984</ele>
        <time>2021-03-15T15:39:00.078Z</time>
      </trkpt>
      <trkpt lat="44.39909" lon="1.639">
        <ele>259.26104736328</ele>
        <time>2021-03-15T15:39:05.254Z</time>
      </trkpt>
      <trkpt lat="44.39944" lon="1.63941">
        <ele>261.82116699219</ele>
        <time>2021-03-15T15:39:10.439Z</time>
      </trkpt>
      <trkpt lat="44.40015" lon="1.63993">
        <ele>264.63983154297</ele>
        <time>2021-03-15T15:39:15.640Z</time>
      </trkpt>
      <trkpt lat="44.40056" lon="1.64044">
        <ele>265.11541748047</ele>
        <time>2021-03-15T15:39:20.852Z</time>
      </trkpt>
      <trkpt lat="44.40109" lon="1.64022">
        <ele>266.65182495117</ele>
        <time>2021-03-15T15:39:26.075Z</time>
      </trkpt>
      <trkpt lat="44.40155" lon="1.63974">
        <ele>265.84860229492</ele>
        <time>2021-03-15T15:39:31.309Z</time>
      </trkpt>
      <trkpt lat="44.40178" lon="1.63967">
        <ele>266.17855834961</ele>
        <time>2021-03-15T15:39:36.548Z</time>
      </trkpt>
      <trkpt lat="44.40198" lon="1.63972">
        <ele>266.93063354492</ele>
        <time>2021-03-15T15:39:41.791Z</time>
      </trkpt>
      <trkpt lat="44.40228" lon="1.63991">
        <ele>268</ele>
        <time>2021-03-15T15:39:47.041Z</time>
      </trkpt>
      <trkpt lat="44.40285" lon="1.64034">
        <ele>267.64288330078</ele>
        <time>2021-03-15T15:39:52.304Z</time>
      </trkpt>
      <trkpt lat="44.40303" lon="1.64141">
        <ele>267.99505615234</ele>
        <time>2021-03-15T15:39:57.582Z</time>
      </trkpt>
      <trkpt lat="44.40335" lon="1.64083">
        <ele>266.69058227539</ele>
        <time>2021-03-15T15:40:02.871Z</time>
      </trkpt>
      <trkpt lat="44.40385" lon="1.64088">
        <ele>265.04388427734</ele>
        <time>2021-03-15T15:40:08.170Z</time>
      </trkpt>
      <trkpt lat="44.40418" lon="1.64108">
        <ele>264.28759765625</ele>
        <time>2021-03-15T15:40:13.476Z</time>
      </trkpt>
      <trkpt lat="44.40449" lon="1.64114">
        <ele>266.74136352539</ele>
        <time>2021-03-15T15:40:18.788Z</time>
      </trkpt>
      <trkpt lat="44.40581" lon="1.64111">
        <ele>272.70986938477</ele>
        <time>2021-03-15T15:40:24.127Z</time>
      </trkpt>
      <trkpt lat="44.40617" lon="1.64131">
        <ele>274.76107788086</ele>
        <time>2021-03-15T15:40:29.474Z</time>
      </trkpt>
      <trkpt lat="44.40673" lon="1.64185">
        <ele>280.19696044922</ele>
        <time>2021-03-15T15:40:34.834Z</time>
      </trkpt>
      <trkpt lat="44.40722" lon="1.64254">
        <ele>283</ele>
        <time>2021-03-15T15:40:40.208Z</time>
      </trkpt>
      <trkpt lat="44.40799" lon="1.6431">
        <ele>281.27108764648</ele>
        <time>2021-03-15T15:40:45.600Z</time>
      </trkpt>
      <trkpt lat="44.40872" lon="1.64349">
        <ele>276</ele>
        <time>2021-03-15T15:40:51.007Z</time>
      </trkpt>
      <trkpt lat="44.40896" lon="1.64353">
        <ele>276.34701538086</ele>
        <time>2021-03-15T15:40:56.419Z</time>
      </trkpt>
      <trkpt lat="44.40934" lon="1.64342">
        <ele>276.88323974609</ele>
        <time>2021-03-15T15:41:01.839Z</time>
      </trkpt>
      <trkpt lat="44.40983" lon="1.64339">
        <ele>278.12130737305</ele>
        <time>2021-03-15T15:41:07.269Z</time>
      </trkpt>
      <trkpt lat="44.41204" lon="1.64377">
        <ele>275.28848266602</ele>
        <time>2021-03-15T15:41:12.743Z</time>
      </trkpt>
      <trkpt lat="44.41266" lon="1.64372">
        <ele>279.23828125</ele>
        <time>2021-03-15T15:41:18.230Z</time>
      </trkpt>
      <trkpt lat="44.41334" lon="1.64382">
        <ele>284.21643066406</ele>
        <time>2021-03-15T15:41:23.730Z</time>
      </trkpt>
      <trkpt lat="44.41398" lon="1.64387">
        <ele>287.40432739258</ele>
        <time>2021-03-15T15:41:29.243Z</time>
      </trkpt>
      <trkpt lat="44.41447" lon="1.64361">
        <ele>288.70486450195</ele>
        <time>2021-03-15T15:41:34.766Z</time>
      </trkpt>
      <trkpt lat="44.41498" lon="1.64346">
        <ele>286.92474365234</ele>
        <time>2021-03-15T15:41:40.300Z</time>
      </trkpt>
      <trkpt lat="44.4161" lon="1.64304">
        <ele>278.60198974609</ele>
        <time>2021-03-15T15:41:45.857Z</time>
      </trkpt>
      <trkpt lat="44.41682" lon="1.64299">
        <ele>277.24209594727</ele>
        <time>2021-03-15T15:41:51.429Z</time>
      </trkpt>
      <trkpt lat="44.41739" lon="1.64301">
        <ele>279.68658447266</ele>
        <time>2021-03-15T15:41:57.012Z</time>
      </trkpt>
      <trkpt lat="44.41784" lon="1.64313">
        <ele>281.18121337891</ele>
        <time>2021-03-15T15:42:02.604Z</time>
      </trkpt>
      <trkpt lat="44.41885" lon="1.64356">
        <ele>283.92367553711</ele>
        <time>2021-03-15T15:42:08.217Z</time>
      </trkpt>
      <trkpt lat="44.41979" lon="1.64318">
        <ele>292.03866577148</ele>
        <time>2021-03-15T15:42:13.850Z</time>
      </trkpt>
      <trkpt lat="44.42089" lon="1.64348">
        <ele>297.56616210938</ele>
        <time>2021-03-15T15:42:19.505Z</time>
      </trkpt>
      <trkpt lat="44.4213" lon="1.64338">
        <ele>299.78332519531</ele>
        <time>2021-03-15T15:42:25.169Z</time>
      </trkpt>
      <trkpt lat="44.42173" lon="1.64335">
        <ele>301.63949584961</ele>
        <time>2021-03-15T15:42:30.841Z</time>
      </trkpt>
      <trkpt lat="44.42204" lon="1.64347">
        <ele>302.14672851562</ele>
        <time>2021-03-15T15:42:36.520Z</time>
      </trkpt>
      <trkpt lat="44.42238" lon="1.64346">
        <ele>305.31164550781</ele>
        <time>2021-03-15T15:42:42.205Z</time>
      </trkpt>
      <trkpt lat="44.42282" lon="1.64328">
        <ele>310.69320678711</ele>
        <time>2021-03-15T15:42:47.900Z</time>
      </trkpt>
      <trkpt lat="44.42331" lon="1.6432">
        <ele>315.60848999023</ele>
        <time>2021-03-15T15:42:53.604Z</time>
      </trkpt>
      <trkpt lat="44.42341" lon="1.64354">
        <ele>316.41027832031</ele>
        <time>2021-03-15T15:42:59.314Z</time>
      </trkpt>
      <trkpt lat="44.42381" lon="1.64335">
        <ele>320.37649536133</ele>
        <time>2021-03-15T15:43:05.032Z</time>
      </trkpt>
      <trkpt lat="44.42413" lon="1.64328">
        <ele>323.5524597168</ele>
        <time>2021-03-15T15:43:10.757Z</time>
      </trkpt>
      <trkpt lat="44.4248" lon="1.64283">
        <ele>328.15594482422</ele>
        <time>2021-03-15T15:43:16.496Z</time>
      </trkpt>
      <trkpt lat="44.42529" lon="1.64264">
        <ele>332.71746826172</ele>
        <time>2021-03-15T15:43:22.246Z</time>
      </trkpt>
      <trkpt lat="44.42588" lon="1.64262">
        <ele>339.30514526367</ele>
        <time>2021-03-15T15:43:28.007Z</time>
      </trkpt>
      <trkpt lat="44.42633" lon="1.64266">
        <ele>343.59005737305</ele>
        <time>2021-03-15T15:43:33.777Z</time>
      </trkpt>
      <trkpt lat="44.42626" lon="1.64305">
        <ele>347.3401184082</ele>
        <time>2021-03-15T15:43:39.553Z</time>
      </trkpt>
      <trkpt lat="44.42603" lon="1.64389">
        <ele>351.06616210938</ele>
        <time>2021-03-15T15:43:45.342Z</time>
      </trkpt>
      <trkpt lat="44.42703" lon="1.64415">
        <ele>360.38095092773</ele>
        <time>2021-03-15T15:43:51.151Z</time>
      </trkpt>
      <trkpt lat="44.4272" lon="1.64426">
        <ele>360.60922241211</ele>
        <time>2021-03-15T15:43:56.964Z</time>
      </trkpt>
      <trkpt lat="44.4275" lon="1.64435">
        <ele>361.59790039062</ele>
        <time>2021-03-15T15:44:02.783Z</time>
      </trkpt>
      <trkpt lat="44.42772" lon="1.64437">
        <ele>362.68893432617</ele>
        <time>2021-03-15T15:44:08.607Z</time>
      </trkpt>
      <trkpt lat="44.42827" lon="1.64458">
        <ele>361.31307983398</ele>
        <time>2021-03-15T15:44:14.442Z</time>
      </trkpt>
      <trkpt lat="44.42859" lon="1.64483">
        <ele>359.0046081543</ele>
        <time>2021-03-15T15:44:20.285Z</time>
      </trkpt>
      <trkpt lat="44.42894" lon="1.64504">
        <ele>356.23388671875</ele>
        <time>2021-03-15T15:44:26.135Z</time>
      </trkpt>
      <trkpt lat="44.42927" lon="1.64517">
        <ele>353.13873291016</ele>
        <time>2021-03-15T15:44:31.992Z</time>
      </trkpt>
      <trkpt lat="44.43007" lon="1.64522">
        <ele>348.00299072266</ele>
        <time>2021-03-15T15:44:37.865Z</time>
      </trkpt>
      <trkpt lat="44.43075" lon="1.64536">
        <ele>340.77239990234</ele>
        <time>2021-03-15T15:44:43.752Z</time>
      </trkpt>
      <trkpt lat="44.43256" lon="1.64589">
        <ele>321.10897827148</ele>
        <time>2021-03-15T15:44:49.676Z</time>
      </trkpt>
      <trkpt lat="44.43286" lon="1.6459">
        <ele>321.98657226562</ele>
        <time>2021-03-15T15:44:55.606Z</time>
      </trkpt>
      <trkpt lat="44.43321" lon="1.64574">
        <ele>323.30401611328</ele>
        <time>2021-03-15T15:45:01.543Z</time>
      </trkpt>
      <trkpt lat="44.43347" lon="1.64575">
        <ele>322.77438354492</ele>
        <time>2021-03-15T15:45:07.485Z</time>
      </trkpt>
      <trkpt lat="44.43381" lon="1.64592">
        <ele>319.88558959961</ele>
        <time>2021-03-15T15:45:13.435Z</time>
      </trkpt>
      <trkpt lat="44.43445" lon="1.64603">
        <ele>319.22842407227</ele>
        <time>2021-03-15T15:45:19.397Z</time>
      </trkpt>
      <trkpt lat="44.43446" lon="1.64624">
        <ele>316.9250793457</ele>
        <time>2021-03-15T15:45:25.362Z</time>
      </trkpt>
      <trkpt lat="44.43462" lon="1.64652">
        <ele>313.65161132812</ele>
        <time>2021-03-15T15:45:31.333Z</time>
      </trkpt>
      <trkpt lat="44.43516" lon="1.64708">
        <ele>312.02288818359</ele>
        <time>2021-03-15T15:45:37.317Z</time>
      </trkpt>
      <trkpt lat="44.43531" lon="1.64729">
        <ele>314.10958862305</ele>
        <time>2021-03-15T15:45:43.305Z</time>
      </trkpt>
      <trkpt lat="44.43576" lon="1.64819">
        <ele>321.27102661133</ele>
        <time>2021-03-15T15:45:49.309Z</time>
      </trkpt>
      <trkpt lat="44.43629" lon="1.64901">
        <ele>320.00527954102</ele>
        <time>2021-03-15T15:45:55.329Z</time>
      </trkpt>
      <trkpt lat="44.43618" lon="1.64985">
        <ele>315.6882019043</ele>
        <time>2021-03-15T15:46:01.361Z</time>
      </trkpt>
      <trkpt lat="44.4362" lon="1.65007">
        <ele>315</ele>
        <time>2021-03-15T15:46:07.396Z</time>
      </trkpt>
      <trkpt lat="44.43627" lon="1.65031">
        <ele>315.33001708984</ele>
        <time>2021-03-15T15:46:13.435Z</time>
      </trkpt>
      <trkpt lat="44.43648" lon="1.65056">
        <ele>317.51397705078</ele>
        <time>2021-03-15T15:46:19.480Z</time>
      </trkpt>
      <trkpt lat="44.43657" lon="1.65081">
        <ele>320.77633666992</ele>
        <time>2021-03-15T15:46:25.529Z</time>
      </trkpt>
      <trkpt lat="44.43673" lon="1.65099">
        <ele>323.82165527344</ele>
        <time>2021-03-15T15:46:31.582Z</time>
      </trkpt>
      <trkpt lat="44.43632" lon="1.65175">
        <ele>330.26052856445</ele>
        <time>2021-03-15T15:46:37.648Z</time>
      </trkpt>
      <trkpt lat="44.43606" lon="1.65236">
        <ele>334.68737792969</ele>
        <time>2021-03-15T15:46:43.724Z</time>
      </trkpt>
      <trkpt lat="44.43583" lon="1.65283">
        <ele>337</ele>
        <time>2021-03-15T15:46:49.809Z</time>
      </trkpt>
      <trkpt lat="44.43562" lon="1.65349">
        <ele>339.81784057617</ele>
        <time>2021-03-15T15:46:55.904Z</time>
      </trkpt>
      <trkpt lat="44.43564" lon="1.654">
        <ele>343.87915039062</ele>
        <time>2021-03-15T15:47:02.006Z</time>
      </trkpt>
      <trkpt lat="44.43587" lon="1.65522">
        <ele>353.46975708008</ele>
        <time>2021-03-15T15:47:08.126Z</time>
      </trkpt>
      <trkpt lat="44.43635" lon="1.65525">
        <ele>355.66842651367</ele>
        <time>2021-03-15T15:47:14.256Z</time>
      </trkpt>
      <trkpt lat="44.43771" lon="1.65577">
        <ele>358.58572387695</ele>
        <time>2021-03-15T15:47:20.414Z</time>
      </trkpt>
      <trkpt lat="44.43864" lon="1.65626">
        <ele>366.73645019531</ele>
        <time>2021-03-15T15:47:26.592Z</time>
      </trkpt>
      <trkpt lat="44.43908" lon="1.65672">
        <ele>368.96029663086</ele>
        <time>2021-03-15T15:47:32.781Z</time>
      </trkpt>
      <trkpt lat="44.43959" lon="1.65773">
        <ele>376.25469970703</ele>
        <time>2021-03-15T15:47:38.988Z</time>
      </trkpt>
      <trkpt lat="44.43965" lon="1.65808">
        <ele>376.80032348633</ele>
        <time>2021-03-15T15:47:45.200Z</time>
      </trkpt>
      <trkpt lat="44.4398" lon="1.6584">
        <ele>373.15634155273</ele>
        <time>2021-03-15T15:47:51.417Z</time>
      </trkpt>
      <trkpt lat="44.44042" lon="1.65886">
        <ele>369.66876220703</ele>
        <time>2021-03-15T15:47:57.648Z</time>
      </trkpt>
      <trkpt lat="44.44066" lon="1.65925">
        <ele>369.87063598633</ele>
        <time>2021-03-15T15:48:03.887Z</time>
      </trkpt>
      <trkpt lat="44.44085" lon="1.66065">
        <ele>369.41625976562</ele>
        <time>2021-03-15T15:48:10.146Z</time>
      </trkpt>
      <trkpt lat="44.44107" lon="1.66112">
        <ele>370.81271362305</ele>
        <time>2021-03-15T15:48:16.413Z</time>
      </trkpt>
      <trkpt lat="44.44303" lon="1.66335">
        <ele>352.07192993164</ele>
        <time>2021-03-15T15:48:22.731Z</time>
      </trkpt>
      <trkpt lat="44.44349" lon="1.66373">
        <ele>350.90814208984</ele>
        <time>2021-03-15T15:48:29.060Z</time>
      </trkpt>
      <trkpt lat="44.44373" lon="1.66375">
        <ele>350.18832397461</ele>
        <time>2021-03-15T15:48:35.393Z</time>
      </trkpt>
      <trkpt lat="44.44366" lon="1.66422">
        <ele>352.23233032227</ele>
        <time>2021-03-15T15:48:41.733Z</time>
      </trkpt>
      <trkpt lat="44.44414" lon="1.66472">
        <ele>350.94778442383</ele>
        <time>2021-03-15T15:48:48.085Z</time>
      </trkpt>
      <trkpt lat="44.44497" lon="1.66502">
        <ele>341.11895751953</ele>
        <time>2021-03-15T15:48:54.454Z</time>
      </trkpt>
      <trkpt lat="44.4454" lon="1.66498">
        <ele>338.52612304688</ele>
        <time>2021-03-15T15:49:00.832Z</time>
      </trkpt>
      <trkpt lat="44.44598" lon="1.66466">
        <ele>337.64077758789</ele>
        <time>2021-03-15T15:49:07.222Z</time>
      </trkpt>
      <trkpt lat="44.4464" lon="1.66425">
        <ele>337.34490966797</ele>
        <time>2021-03-15T15:49:13.623Z</time>
      </trkpt>
      <trkpt lat="44.44688" lon="1.6644">
        <ele>326.90097045898</ele>
        <time>2021-03-15T15:49:20.034Z</time>
      </trkpt>
      <trkpt lat="44.44718" lon="1.66466">
        <ele>322.90896606445</ele>
        <time>2021-03-15T15:49:26.452Z</time>
      </trkpt>
      <trkpt lat="44.44753" lon="1.66478">
        <ele>323.08651733398</ele>
        <time>2021-03-15T15:49:32.877Z</time>
      </trkpt>
      <trkpt lat="44.44816" lon="1.6648">
        <ele>326.82653808594</ele>
        <time>2021-03-15T15:49:39.314Z</time>
      </trkpt>
      <trkpt lat="44.4482" lon="1.66502">
        <ele>328.52941894531</ele>
        <time>2021-03-15T15:49:45.755Z</time>
      </trkpt>
      <trkpt lat="44.44838" lon="1.66472">
        <ele>329.70574951172</ele>
        <time>2021-03-15T15:49:52.201Z</time>
      </trkpt>
      <trkpt lat="44.44858" lon="1.66471">
        <ele>332.54895019531</ele>
        <time>2021-03-15T15:49:58.651Z</time>
      </trkpt>
      <trkpt lat="44.44875" lon="1.66473">
        <ele>333.96578979492</ele>
        <time>2021-03-15T15:50:05.105Z</time>
      </trkpt>
      <trkpt lat="44.44896" lon="1.66483">
        <ele>335.30703735352</ele>
        <time>2021-03-15T15:50:11.563Z</time>
      </trkpt>
      <trkpt lat="44.44916" lon="1.66497">
        <ele>335.94635009766</ele>
        <time>2021-03-15T15:50:18.026Z</time>
      </trkpt>
      <trkpt lat="44.44944" lon="1.66507">
        <ele>333.79150390625</ele>
        <time>2021-03-15T15:50:24.494Z</time>
      </trkpt>
      <trkpt lat="44.44977" lon="1.66504">
        <ele>333.0419921875</ele>
        <time>2021-03-15T15:50:30.969Z</time>
      </trkpt>
      <trkpt lat="44.45015" lon="1.66494">
        <ele>333.97073364258</ele>
        <time>2021-03-15T15:50:37.452Z</time>
      </trkpt>
      <trkpt lat="44.45048" lon="1.66493">
        <ele>335.13812255859</ele>
        <time>2021-03-15T15:50:43.941Z</time>
      </trkpt>
      <trkpt lat="44.45142" lon="1.66504">
        <ele>337.34213256836</ele>
        <time>2021-03-15T15:50:50.449Z</time>
      </trkpt>
      <trkpt lat="44.45212" lon="1.66524">
        <ele>339.28225708008</ele>
        <time>2021-03-15T15:50:56.971Z</time>
      </trkpt>
      <trkpt lat="44.4524" lon="1.66541">
        <ele>339.31063842773</ele>
        <time>2021-03-15T15:51:03.500Z</time>
      </trkpt>
      <trkpt lat="44.45273" lon="1.66557">
        <ele>341.6369934082</ele>
        <time>2021-03-15T15:51:10.036Z</time>
      </trkpt>
      <trkpt lat="44.45322" lon="1.66569">
        <ele>344.5530090332</ele>
        <time>2021-03-15T15:51:16.582Z</time>
      </trkpt>
      <trkpt lat="44.45402" lon="1.66562">
        <ele>352.65081787109</ele>
        <time>2021-03-15T15:51:23.144Z</time>
      </trkpt>
      <trkpt lat="44.45458" lon="1.66569">
        <ele>356.17010498047</ele>
        <time>2021-03-15T15:51:29.717Z</time>
      </trkpt>
      <trkpt lat="44.45494" lon="1.66584">
        <ele>357.71640014648</ele>
        <time>2021-03-15T15:51:36.297Z</time>
      </trkpt>
      <trkpt lat="44.45576" lon="1.66577">
        <ele>362.55322265625</ele>
        <time>2021-03-15T15:51:42.894Z</time>
      </trkpt>
      <trkpt lat="44.45606" lon="1.66643">
        <ele>367.31802368164</ele>
        <time>2021-03-15T15:51:49.502Z</time>
      </trkpt>
      <trkpt lat="44.45641" lon="1.66774">
        <ele>364.15023803711</ele>
        <time>2021-03-15T15:51:56.130Z</time>
      </trkpt>
      <trkpt lat="44.45654" lon="1.66809">
        <ele>360.13214111328</ele>
        <time>2021-03-15T15:52:02.764Z</time>
      </trkpt>
      <trkpt lat="44.45655" lon="1.66838">
        <ele>356.62475585938</ele>
        <time>2021-03-15T15:52:09.402Z</time>
      </trkpt>
      <trkpt lat="44.45668" lon="1.66835">
        <ele>357.3249206543</ele>
        <time>2021-03-15T15:52:16.042Z</time>
      </trkpt>
      <trkpt lat="44.45687" lon="1.66819">
        <ele>359.05242919922</ele>
        <time>2021-03-15T15:52:22.687Z</time>
      </trkpt>
      <trkpt lat="44.45709" lon="1.66824">
        <ele>358.51257324219</ele>
        <time>2021-03-15T15:52:29.336Z</time>
      </trkpt>
      <trkpt lat="44.45743" lon="1.66839">
        <ele>357.64791870117</ele>
        <time>2021-03-15T15:52:35.992Z</time>
      </trkpt>
      <trkpt lat="44.45758" lon="1.6687">
        <ele>353.39462280273</ele>
        <time>2021-03-15T15:52:42.654Z</time>
      </trkpt>
      <trkpt lat="44.4578" lon="1.66927">
        <ele>345.18890380859</ele>
        <time>2021-03-15T15:52:49.325Z</time>
      </trkpt>
      <trkpt lat="44.45795" lon="1.66956">
        <ele>341.26052856445</ele>
        <time>2021-03-15T15:52:56.001Z</time>
      </trkpt>
      <trkpt lat="44.4582" lon="1.66984">
        <ele>337.06042480469</ele>
        <time>2021-03-15T15:53:02.684Z</time>
      </trkpt>
      <trkpt lat="44.45873" lon="1.67009">
        <ele>334.78454589844</ele>
        <time>2021-03-15T15:53:09.378Z</time>
      </trkpt>
      <trkpt lat="44.45885" lon="1.67033">
        <ele>334.72113037109</ele>
        <time>2021-03-15T15:53:16.076Z</time>
      </trkpt>
      <trkpt lat="44.459" lon="1.67097">
        <ele>337.32485961914</ele>
        <time>2021-03-15T15:53:22.784Z</time>
      </trkpt>
      <trkpt lat="44.45917" lon="1.67132">
        <ele>338.36346435547</ele>
        <time>2021-03-15T15:53:29.498Z</time>
      </trkpt>
      <trkpt lat="44.4594" lon="1.67141">
        <ele>339.04727172852</ele>
        <time>2021-03-15T15:53:36.216Z</time>
      </trkpt>
      <trkpt lat="44.45978" lon="1.67138">
        <ele>340.60998535156</ele>
        <time>2021-03-15T15:53:42.942Z</time>
      </trkpt>
      <trkpt lat="44.46007" lon="1.67128">
        <ele>340.54263305664</ele>
        <time>2021-03-15T15:53:49.674Z</time>
      </trkpt>
      <trkpt lat="44.46056" lon="1.67137">
        <ele>338.53408813477</ele>
        <time>2021-03-15T15:53:56.416Z</time>
      </trkpt>
      <trkpt lat="44.46079" lon="1.67152">
        <ele>338.88320922852</ele>
        <time>2021-03-15T15:54:03.163Z</time>
      </trkpt>
      <trkpt lat="44.46098" lon="1.67152">
        <ele>339</ele>
        <time>2021-03-15T15:54:09.914Z</time>
      </trkpt>
      <trkpt lat="44.46114" lon="1.67169">
        <ele>338.57144165039</ele>
        <time>2021-03-15T15:54:16.669Z</time>
      </trkpt>
      <trkpt lat="44.46177" lon="1.67189">
        <ele>322.52996826172</ele>
        <time>2021-03-15T15:54:23.437Z</time>
      </trkpt>
      <trkpt lat="44.46224" lon="1.67309">
        <ele>308.57550048828</ele>
        <time>2021-03-15T15:54:30.224Z</time>
      </trkpt>
      <trkpt lat="44.46248" lon="1.67334">
        <ele>298.1842956543</ele>
        <time>2021-03-15T15:54:37.017Z</time>
      </trkpt>
      <trkpt lat="44.46291" lon="1.67362">
        <ele>280.04681396484</ele>
        <time>2021-03-15T15:54:43.820Z</time>
      </trkpt>
      <trkpt lat="44.46291" lon="1.67489">
        <ele>278.47164916992</ele>
        <time>2021-03-15T15:54:50.641Z</time>
      </trkpt>
      <trkpt lat="44.4628" lon="1.67526">
        <ele>282.24215698242</ele>
        <time>2021-03-15T15:54:57.468Z</time>
      </trkpt>
      <trkpt lat="44.46286" lon="1.67586">
        <ele>277.74911499023</ele>
        <time>2021-03-15T15:55:04.303Z</time>
      </trkpt>
      <trkpt lat="44.46289" lon="1.67668">
        <ele>272.76940917969</ele>
        <time>2021-03-15T15:55:11.150Z</time>
      </trkpt>
      <trkpt lat="44.46257" lon="1.67791">
        <ele>269.79022216797</ele>
        <time>2021-03-15T15:55:18.016Z</time>
      </trkpt>
      <trkpt lat="44.4625" lon="1.67834">
        <ele>266.31723022461</ele>
        <time>2021-03-15T15:55:24.888Z</time>
      </trkpt>
      <trkpt lat="44.46236" lon="1.67869">
        <ele>263.08303833008</ele>
        <time>2021-03-15T15:55:31.766Z</time>
      </trkpt>
      <trkpt lat="44.46251" lon="1.67939">
        <ele>252.35440063477</ele>
        <time>2021-03-15T15:55:38.654Z</time>
      </trkpt>
      <trkpt lat="44.46278" lon="1.67997">
        <ele>246.44021606445</ele>
        <time>2021-03-15T15:55:45.552Z</time>
      </trkpt>
      <trkpt lat="44.46309" lon="1.68019">
        <ele>240.18005371094</ele>
        <time>2021-03-15T15:55:52.457Z</time>
      </trkpt>
      <trkpt lat="44.46339" lon="1.68047">
        <ele>232.52601623535</ele>
        <time>2021-03-15T15:55:59.370Z</time>
      </trkpt>
      <trkpt lat="44.46352" lon="1.68028">
        <ele>229.92141723633</ele>
        <time>2021-03-15T15:56:06.286Z</time>
      </trkpt>
      <trkpt lat="44.46354" lon="1.67909">
        <ele>231.31730651855</ele>
        <time>2021-03-15T15:56:13.219Z</time>
      </trkpt>
      <trkpt lat="44.46385" lon="1.67791">
        <ele>225.54618835449</ele>
        <time>2021-03-15T15:56:20.170Z</time>
      </trkpt>
      <trkpt lat="44.46401" lon="1.67747">
        <ele>220.8642578125</ele>
        <time>2021-03-15T15:56:27.128Z</time>
      </trkpt>
      <trkpt lat="44.4644" lon="1.67681">
        <ele>210.88714599609</ele>
        <time>2021-03-15T15:56:34.099Z</time>
      </trkpt>
      <trkpt lat="44.46448" lon="1.67648">
        <ele>211.06176757812</ele>
        <time>2021-03-15T15:56:41.075Z</time>
      </trkpt>
      <trkpt lat="44.46453" lon="1.67599">
        <ele>209.3415222168</ele>
        <time>2021-03-15T15:56:48.058Z</time>
      </trkpt>
      <trkpt lat="44.46446" lon="1.67542">
        <ele>208.51286315918</ele>
        <time>2021-03-15T15:56:55.049Z</time>
      </trkpt>
      <trkpt lat="44.4647" lon="1.67474">
        <ele>199.35984802246</ele>
        <time>2021-03-15T15:57:02.051Z</time>
      </trkpt>
      <trkpt lat="44.46483" lon="1.67417">
        <ele>191.44415283203</ele>
        <time>2021-03-15T15:57:09.062Z</time>
      </trkpt>
      <trkpt lat="44.46485" lon="1.67384">
        <ele>187.85386657715</ele>
        <time>2021-03-15T15:57:16.077Z</time>
      </trkpt>
      <trkpt lat="44.46483" lon="1.67323">
        <ele>182.61932373047</ele>
        <time>2021-03-15T15:57:23.101Z</time>
      </trkpt>
      <trkpt lat="44.46492" lon="1.67336">
        <ele>181.39566040039</ele>
        <time>2021-03-15T15:57:30.128Z</time>
      </trkpt>
      <trkpt lat="44.46497" lon="1.67364">
        <ele>179.80955505371</ele>
        <time>2021-03-15T15:57:37.159Z</time>
      </trkpt>
      <trkpt lat="44.46504" lon="1.67351">
        <ele>177.38945007324</ele>
        <time>2021-03-15T15:57:44.192Z</time>
      </trkpt>
      <trkpt lat="44.46505" lon="1.67323">
        <ele>176.30541992188</ele>
        <time>2021-03-15T15:57:51.229Z</time>
      </trkpt>
      <trkpt lat="44.46485" lon="1.67282">
        <ele>174.93501281738</ele>
        <time>2021-03-15T15:57:58.273Z</time>
      </trkpt>
      <trkpt lat="44.46439" lon="1.67206">
        <ele>181.68759155273</ele>
        <time>2021-03-15T15:58:05.331Z</time>
      </trkpt>
      <trkpt lat="44.4643" lon="1.67176">
        <ele>185.19450378418</ele>
        <time>2021-03-15T15:58:12.394Z</time>
      </trkpt>
      <trkpt lat="44.4643" lon="1.67123">
        <ele>189.65315246582</ele>
        <time>2021-03-15T15:58:19.465Z</time>
      </trkpt>
      <trkpt lat="44.46441" lon="1.67081">
        <ele>193.89274597168</ele>
        <time>2021-03-15T15:58:26.542Z</time>
      </trkpt>
      <trkpt lat="44.46445" lon="1.67053">
        <ele>198.25686645508</ele>
        <time>2021-03-15T15:58:33.623Z</time>
      </trkpt>
      <trkpt lat="44.4645" lon="1.67035">
        <ele>201.46182250977</ele>
        <time>2021-03-15T15:58:40.707Z</time>
      </trkpt>
      <trkpt lat="44.46464" lon="1.67026">
        <ele>202.93684387207</ele>
        <time>2021-03-15T15:58:47.794Z</time>
      </trkpt>
      <trkpt lat="44.46463" lon="1.66963">
        <ele>212.41621398926</ele>
        <time>2021-03-15T15:58:54.890Z</time>
      </trkpt>
      <trkpt lat="44.46456" lon="1.66898">
        <ele>222.36373901367</ele>
        <time>2021-03-15T15:59:01.995Z</time>
      </trkpt>
      <trkpt lat="44.46457" lon="1.66872">
        <ele>224.28924560547</ele>
        <time>2021-03-15T15:59:09.104Z</time>
      </trkpt>
      <trkpt lat="44.4647" lon="1.66851">
        <ele>224.66659545898</ele>
        <time>2021-03-15T15:59:16.217Z</time>
      </trkpt>
      <trkpt lat="44.46475" lon="1.66821">
        <ele>226.77244567871</ele>
        <time>2021-03-15T15:59:23.335Z</time>
      </trkpt>
      <trkpt lat="44.46486" lon="1.66805">
        <ele>225.15985107422</ele>
        <time>2021-03-15T15:59:30.456Z</time>
      </trkpt>
      <trkpt lat="44.46504" lon="1.66803">
        <ele>217.72091674805</ele>
        <time>2021-03-15T15:59:37.580Z</time>
      </trkpt>
      <trkpt lat="44.46524" lon="1.6677">
        <ele>208.05387878418</ele>
        <time>2021-03-15T15:59:44.711Z</time>
      </trkpt>
      <trkpt lat="44.46563" lon="1.66721">
        <ele>199.24510192871</ele>
        <time>2021-03-15T15:59:51.852Z</time>
      </trkpt>
      <trkpt lat="44.46578" lon="1.66718">
        <ele>192.60433959961</ele>
        <time>2021-03-15T15:59:58.996Z</time>
      </trkpt>
      <trkpt lat="44.46594" lon="1.66728">
        <ele>182.57572937012</ele>
        <time>2021-03-15T16:00:06.144Z</time>
      </trkpt>
      <trkpt lat="44.46616" lon="1.66703">
        <ele>180.50102233887</ele>
        <time>2021-03-15T16:00:13.297Z</time>
      </trkpt>
      <trkpt lat="44.4665" lon="1.66684">
        <ele>179.72512817383</ele>
        <time>2021-03-15T16:00:20.458Z</time>
      </trkpt>
      <trkpt lat="44.46706" lon="1.6667">
        <ele>159.88131713867</ele>
        <time>2021-03-15T16:00:27.630Z</time>
      </trkpt>
      <trkpt lat="44.46737" lon="1.66626">
        <ele>173.20455932617</ele>
        <time>2021-03-15T16:00:34.811Z</time>
      </trkpt>
      <trkpt lat="44.46804" lon="1.6656">
        <ele>159.41999816895</ele>
        <time>2021-03-15T16:00:42.008Z</time>
      </trkpt>
      <trkpt lat="44.46855" lon="1.66494">
        <ele>153.2564239502</ele>
        <time>2021-03-15T16:00:49.219Z</time>
      </trkpt>
      <trkpt lat="44.46863" lon="1.66462">
        <ele>161.49664306641</ele>
        <time>2021-03-15T16:00:56.435Z</time>
      </trkpt>
      <trkpt lat="44.46901" lon="1.66423">
        <ele>159.88125610352</ele>
        <time>2021-03-15T16:01:03.660Z</time>
      </trkpt>
      <trkpt lat="44.4697" lon="1.66335">
        <ele>148.7036895752</ele>
        <time>2021-03-15T16:01:10.904Z</time>
      </trkpt>
      <trkpt lat="44.46976" lon="1.66301">
        <ele>148.49291992188</ele>
        <time>2021-03-15T16:01:18.153Z</time>
      </trkpt>
      <trkpt lat="44.47027" lon="1.66213">
        <ele>141.47364807129</ele>
        <time>2021-03-15T16:01:25.418Z</time>
      </trkpt>
      <trkpt lat="44.4706" lon="1.66147">
        <ele>139.90953063965</ele>
        <time>2021-03-15T16:01:32.695Z</time>
      </trkpt>
      <trkpt lat="44.47128" lon="1.66223">
        <ele>130.36328125</ele>
        <time>2021-03-15T16:01:39.989Z</time>
      </trkpt>
      <trkpt lat="44.47206" lon="1.66146">
        <ele>134.79327392578</ele>
        <time>2021-03-15T16:01:47.302Z</time>
      </trkpt>
      <trkpt lat="44.47238" lon="1.66105">
        <ele>138.4058380127</ele>
        <time>2021-03-15T16:01:54.624Z</time>
      </trkpt>
      <trkpt lat="44.47269" lon="1.66023">
        <ele>137.60343933105</ele>
        <time>2021-03-15T16:02:01.959Z</time>
      </trkpt>
      <trkpt lat="44.47277" lon="1.65923">
        <ele>134.06803894043</ele>
        <time>2021-03-15T16:02:09.309Z</time>
      </trkpt>
      <trkpt lat="44.47281" lon="1.65822">
        <ele>136.72018432617</ele>
        <time>2021-03-15T16:02:16.673Z</time>
      </trkpt>
      <trkpt lat="44.47282" lon="1.65719">
        <ele>132.45231628418</ele>
        <time>2021-03-15T16:02:24.052Z</time>
      </trkpt>
      <trkpt lat="44.47291" lon="1.65621">
        <ele>132.50924682617</ele>
        <time>2021-03-15T16:02:31.445Z</time>
      </trkpt>
      <trkpt lat="44.47277" lon="1.65386">
        <ele>132.7421875</ele>
        <time>2021-03-15T16:02:38.872Z</time>
      </trkpt>
      <trkpt lat="44.4727" lon="1.6515">
        <ele>132.25270080566</ele>
        <time>2021-03-15T16:02:46.333Z</time>
      </trkpt>
      <trkpt lat="44.47281" lon="1.65065">
        <ele>131.04620361328</ele>
        <time>2021-03-15T16:02:53.806Z</time>
      </trkpt>
      <trkpt lat="44.47295" lon="1.64986">
        <ele>133.71269226074</ele>
        <time>2021-03-15T16:03:01.291Z</time>
      </trkpt>
      <trkpt lat="44.47322" lon="1.64884">
        <ele>144.19017028809</ele>
        <time>2021-03-15T16:03:08.791Z</time>
      </trkpt>
      <trkpt lat="44.4734" lon="1.64876">
        <ele>141.67353820801</ele>
        <time>2021-03-15T16:03:16.295Z</time>
      </trkpt>
      <trkpt lat="44.47382" lon="1.64799">
        <ele>152.14990234375</ele>
        <time>2021-03-15T16:03:23.813Z</time>
      </trkpt>
      <trkpt lat="44.47427" lon="1.64726">
        <ele>174.57772827148</ele>
        <time>2021-03-15T16:03:31.345Z</time>
      </trkpt>
      <trkpt lat="44.47474" lon="1.64668">
        <ele>176.59588623047</ele>
        <time>2021-03-15T16:03:38.889Z</time>
      </trkpt>
      <trkpt lat="44.47553" lon="1.64595">
        <ele>197.38311767578</ele>
        <time>2021-03-15T16:03:46.452Z</time>
      </trkpt>
      <trkpt lat="44.47628" lon="1.64562">
        <ele>197.0182800293</ele>
        <time>2021-03-15T16:03:54.031Z</time>
      </trkpt>
      <trkpt lat="44.47687" lon="1.64547">
        <ele>192.14123535156</ele>
        <time>2021-03-15T16:04:01.622Z</time>
      </trkpt>
      <trkpt lat="44.47797" lon="1.64532">
        <ele>195.0479888916</ele>
        <time>2021-03-15T16:04:09.235Z</time>
      </trkpt>
      <trkpt lat="44.47824" lon="1.6455">
        <ele>180.69586181641</ele>
        <time>2021-03-15T16:04:16.854Z</time>
      </trkpt>
      <trkpt lat="44.47866" lon="1.64568">
        <ele>164.85865783691</ele>
        <time>2021-03-15T16:04:24.482Z</time>
      </trkpt>
      <trkpt lat="44.47929" lon="1.64583">
        <ele>169.37478637695</ele>
        <time>2021-03-15T16:04:32.123Z</time>
      </trkpt>
      <trkpt lat="44.47997" lon="1.64595">
        <ele>152.32496643066</ele>
        <time>2021-03-15T16:04:39.777Z</time>
      </trkpt>
      <trkpt lat="44.48097" lon="1.64594">
        <ele>135.47970581055</ele>
        <time>2021-03-15T16:04:47.451Z</time>
      </trkpt>
      <trkpt lat="44.48249" lon="1.64573">
        <ele>130.53617858887</ele>
        <time>2021-03-15T16:04:55.156Z</time>
      </trkpt>
      <trkpt lat="44.48296" lon="1.64559">
        <ele>132.65148925781</ele>
        <time>2021-03-15T16:05:02.871Z</time>
      </trkpt>
      <trkpt lat="44.48348" lon="1.6454">
        <ele>132.2946472168</ele>
        <time>2021-03-15T16:05:10.596Z</time>
      </trkpt>
      <trkpt lat="44.48383" lon="1.64506">
        <ele>132.07098388672</ele>
        <time>2021-03-15T16:05:18.330Z</time>
      </trkpt>
      <trkpt lat="44.48421" lon="1.64464">
        <ele>133</ele>
        <time>2021-03-15T16:05:26.074Z</time>
      </trkpt>
      <trkpt lat="44.48441" lon="1.64473">
        <ele>133</ele>
        <time>2021-03-15T16:05:33.822Z</time>
      </trkpt>
      <trkpt lat="44.48452" lon="1.64462">
        <ele>133</ele>
        <time>2021-03-15T16:05:41.572Z</time>
      </trkpt>
      <trkpt lat="44.48468" lon="1.64439">
        <ele>131.79634094238</ele>
        <time>2021-03-15T16:05:49.327Z</time>
      </trkpt>
      <trkpt lat="44.48497" lon="1.64391">
        <ele>131</ele>
        <time>2021-03-15T16:05:57.091Z</time>
      </trkpt>
      <trkpt lat="44.48528" lon="1.6429">
        <ele>131.97727966309</ele>
        <time>2021-03-15T16:06:04.871Z</time>
      </trkpt>
      <trkpt lat="44.48534" lon="1.64237">
        <ele>132.76133728027</ele>
        <time>2021-03-15T16:06:12.658Z</time>
      </trkpt>
      <trkpt lat="44.48583" lon="1.64067">
        <ele>133.27352905273</ele>
        <time>2021-03-15T16:06:20.472Z</time>
      </trkpt>
      <trkpt lat="44.48609" lon="1.63928">
        <ele>132.79333496094</ele>
        <time>2021-03-15T16:06:28.306Z</time>
      </trkpt>
      <trkpt lat="44.48624" lon="1.63827">
        <ele>135.04449462891</ele>
        <time>2021-03-15T16:06:36.155Z</time>
      </trkpt>
      <trkpt lat="44.48637" lon="1.63764">
        <ele>134.10874938965</ele>
        <time>2021-03-15T16:06:44.013Z</time>
      </trkpt>
      <trkpt lat="44.48639" lon="1.63698">
        <ele>134.97344970703</ele>
        <time>2021-03-15T16:06:51.881Z</time>
      </trkpt>
      <trkpt lat="44.48652" lon="1.63617">
        <ele>130.6953125</ele>
        <time>2021-03-15T16:06:59.761Z</time>
      </trkpt>
      <trkpt lat="44.48653" lon="1.63488">
        <ele>130.43560791016</ele>
        <time>2021-03-15T16:07:07.659Z</time>
      </trkpt>
      <trkpt lat="44.48651" lon="1.63431">
        <ele>129</ele>
        <time>2021-03-15T16:07:15.565Z</time>
      </trkpt>
      <trkpt lat="44.4863" lon="1.63334">
        <ele>129.13751220703</ele>
        <time>2021-03-15T16:07:23.486Z</time>
      </trkpt>
      <trkpt lat="44.48617" lon="1.6323">
        <ele>136.34112548828</ele>
        <time>2021-03-15T16:07:31.422Z</time>
      </trkpt>
      <trkpt lat="44.48599" lon="1.63184">
        <ele>142.89936828613</ele>
        <time>2021-03-15T16:07:39.366Z</time>
      </trkpt>
      <trkpt lat="44.48605" lon="1.6298">
        <ele>141.49819946289</ele>
        <time>2021-03-15T16:07:47.339Z</time>
      </trkpt>
      <trkpt lat="44.48624" lon="1.62849">
        <ele>137.78462219238</ele>
        <time>2021-03-15T16:07:55.331Z</time>
      </trkpt>
      <trkpt lat="44.4866" lon="1.62699">
        <ele>140.70169067383</ele>
        <time>2021-03-15T16:08:03.346Z</time>
      </trkpt>
      <trkpt lat="44.48675" lon="1.62607">
        <ele>144.76806640625</ele>
        <time>2021-03-15T16:08:11.374Z</time>
      </trkpt>
      <trkpt lat="44.48689" lon="1.62435">
        <ele>134.4761505127</ele>
        <time>2021-03-15T16:08:19.427Z</time>
      </trkpt>
      <trkpt lat="44.4869" lon="1.62354">
        <ele>134.99545288086</ele>
        <time>2021-03-15T16:08:27.491Z</time>
      </trkpt>
      <trkpt lat="44.48697" lon="1.6224">
        <ele>135.33457946777</ele>
        <time>2021-03-15T16:08:35.572Z</time>
      </trkpt>
      <trkpt lat="44.48696" lon="1.62141">
        <ele>138.56211853027</ele>
        <time>2021-03-15T16:08:43.667Z</time>
      </trkpt>
      <trkpt lat="44.48685" lon="1.62084">
        <ele>143.19116210938</ele>
        <time>2021-03-15T16:08:51.770Z</time>
      </trkpt>
      <trkpt lat="44.4868" lon="1.62011">
        <ele>140.07225036621</ele>
        <time>2021-03-15T16:08:59.884Z</time>
      </trkpt>
      <trkpt lat="44.4865" lon="1.61886">
        <ele>143.7096862793</ele>
        <time>2021-03-15T16:09:08.017Z</time>
      </trkpt>
      <trkpt lat="44.48612" lon="1.61692">
        <ele>137.65748596191</ele>
        <time>2021-03-15T16:09:16.179Z</time>
      </trkpt>
      <trkpt lat="44.48603" lon="1.61661">
        <ele>138.62565612793</ele>
        <time>2021-03-15T16:09:24.345Z</time>
      </trkpt>
      <trkpt lat="44.48596" lon="1.61588">
        <ele>137.11985778809</ele>
        <time>2021-03-15T16:09:32.522Z</time>
      </trkpt>
      <trkpt lat="44.48579" lon="1.61535">
        <ele>134.28480529785</ele>
        <time>2021-03-15T16:09:40.707Z</time>
      </trkpt>
      <trkpt lat="44.48563" lon="1.61502">
        <ele>134.78456115723</ele>
        <time>2021-03-15T16:09:48.898Z</time>
      </trkpt>
      <trkpt lat="44.48527" lon="1.6141">
        <ele>134.72557067871</ele>
        <time>2021-03-15T16:09:57.104Z</time>
      </trkpt>
      <trkpt lat="44.48488" lon="1.6134">
        <ele>136.33767700195</ele>
        <time>2021-03-15T16:10:05.323Z</time>
      </trkpt>
      <trkpt lat="44.48405" lon="1.61236">
        <ele>137.72647094727</ele>
        <time>2021-03-15T16:10:13.564Z</time>
      </trkpt>
      <trkpt lat="44.48299" lon="1.61171">
        <ele>137.61528015137</ele>
        <time>2021-03-15T16:10:21.828Z</time>
      </trkpt>
      <trkpt lat="44.48272" lon="1.61143">
        <ele>134.18299865723</ele>
        <time>2021-03-15T16:10:30.099Z</time>
      </trkpt>
      <trkpt lat="44.48233" lon="1.61144">
        <ele>134.36296081543</ele>
        <time>2021-03-15T16:10:38.378Z</time>
      </trkpt>
      <trkpt lat="44.48196" lon="1.61159">
        <ele>135.91136169434</ele>
        <time>2021-03-15T16:10:46.664Z</time>
      </trkpt>
      <trkpt lat="44.48164" lon="1.61179">
        <ele>138.25131225586</ele>
        <time>2021-03-15T16:10:54.957Z</time>
      </trkpt>
      <trkpt lat="44.48047" lon="1.61165">
        <ele>138.77362060547</ele>
        <time>2021-03-15T16:11:03.274Z</time>
      </trkpt>
      <trkpt lat="44.47939" lon="1.61132">
        <ele>136.9051361084</ele>
        <time>2021-03-15T16:11:11.613Z</time>
      </trkpt>
      <trkpt lat="44.47889" lon="1.61111">
        <ele>139.46437072754</ele>
        <time>2021-03-15T16:11:19.962Z</time>
      </trkpt>
      <trkpt lat="44.47847" lon="1.61078">
        <ele>136.09175109863</ele>
        <time>2021-03-15T16:11:28.321Z</time>
      </trkpt>
      <trkpt lat="44.47819" lon="1.61065">
        <ele>134.68814086914</ele>
        <time>2021-03-15T16:11:36.686Z</time>
      </trkpt>
      <trkpt lat="44.47805" lon="1.61035">
        <ele>131.44903564453</ele>
        <time>2021-03-15T16:11:45.056Z</time>
      </trkpt>
      <trkpt lat="44.47711" lon="1.60994">
        <ele>130.72929382324</ele>
        <time>2021-03-15T16:11:53.446Z</time>
      </trkpt>
      <trkpt lat="44.47641" lon="1.61004">
        <ele>133.13595581055</ele>
        <time>2021-03-15T16:12:01.850Z</time>
      </trkpt>
      <trkpt lat="44.47591" lon="1.6098">
        <ele>133.74029541016</ele>
        <time>2021-03-15T16:12:10.264Z</time>
      </trkpt>
      <trkpt lat="44.4756" lon="1.6098">
        <ele>136.31213378906</ele>
        <time>2021-03-15T16:12:18.685Z</time>
      </trkpt>
      <trkpt lat="44.47432" lon="1.60938">
        <ele>132.21228027344</ele>
        <time>2021-03-15T16:12:27.132Z</time>
      </trkpt>
      <trkpt lat="44.4723" lon="1.60876">
        <ele>128.81188964844</ele>
        <time>2021-03-15T16:12:35.620Z</time>
      </trkpt>
      <trkpt lat="44.47141" lon="1.60835">
        <ele>128.90336608887</ele>
        <time>2021-03-15T16:12:44.127Z</time>
      </trkpt>
      <trkpt lat="44.47101" lon="1.6082">
        <ele>128.74684143066</ele>
        <time>2021-03-15T16:12:52.642Z</time>
      </trkpt>
      <trkpt lat="44.47033" lon="1.60804">
        <ele>131.34701538086</ele>
        <time>2021-03-15T16:13:01.171Z</time>
      </trkpt>
      <trkpt lat="44.47016" lon="1.60795">
        <ele>132.78833007812</ele>
        <time>2021-03-15T16:13:09.704Z</time>
      </trkpt>
      <trkpt lat="44.46959" lon="1.60708">
        <ele>127.5884475708</ele>
        <time>2021-03-15T16:13:18.254Z</time>
      </trkpt>
      <trkpt lat="44.46936" lon="1.60702">
        <ele>127.16500854492</ele>
        <time>2021-03-15T16:13:26.808Z</time>
      </trkpt>
      <trkpt lat="44.4685" lon="1.60464">
        <ele>129.40060424805</ele>
        <time>2021-03-15T16:13:35.401Z</time>
      </trkpt>
      <trkpt lat="44.46813" lon="1.60354">
        <ele>132.33763122559</ele>
        <time>2021-03-15T16:13:44.011Z</time>
      </trkpt>
      <trkpt lat="44.46769" lon="1.60267">
        <ele>139.62083435059</ele>
        <time>2021-03-15T16:13:52.636Z</time>
      </trkpt>
      <trkpt lat="44.46582" lon="1.60004">
        <ele>138.79888916016</ele>
        <time>2021-03-15T16:14:01.314Z</time>
      </trkpt>
      <trkpt lat="44.46531" lon="1.59911">
        <ele>139.90753173828</ele>
        <time>2021-03-15T16:14:10.009Z</time>
      </trkpt>
      <trkpt lat="44.46514" lon="1.59871">
        <ele>140.82038879395</ele>
        <time>2021-03-15T16:14:18.711Z</time>
      </trkpt>
      <trkpt lat="44.46495" lon="1.59793">
        <ele>140.27520751953</ele>
        <time>2021-03-15T16:14:27.425Z</time>
      </trkpt>
      <trkpt lat="44.46488" lon="1.59748">
        <ele>139.24298095703</ele>
        <time>2021-03-15T16:14:36.145Z</time>
      </trkpt>
      <trkpt lat="44.46486" lon="1.59711">
        <ele>138.1545715332</ele>
        <time>2021-03-15T16:14:44.870Z</time>
      </trkpt>
      <trkpt lat="44.4649" lon="1.59619">
        <ele>132.0760345459</ele>
        <time>2021-03-15T16:14:53.609Z</time>
      </trkpt>
      <trkpt lat="44.46518" lon="1.59545">
        <ele>134.41404724121</ele>
        <time>2021-03-15T16:15:02.360Z</time>
      </trkpt>
      <trkpt lat="44.46568" lon="1.59567">
        <ele>139.13056945801</ele>
        <time>2021-03-15T16:15:11.121Z</time>
      </trkpt>
      <trkpt lat="44.46643" lon="1.59589">
        <ele>142.43653869629</ele>
        <time>2021-03-15T16:15:19.897Z</time>
      </trkpt>
      <trkpt lat="44.46724" lon="1.59623">
        <ele>147.76495361328</ele>
        <time>2021-03-15T16:15:28.690Z</time>
      </trkpt>
      <trkpt lat="44.46769" lon="1.59646">
        <ele>149.6701965332</ele>
        <time>2021-03-15T16:15:37.493Z</time>
      </trkpt>
      <trkpt lat="44.46822" lon="1.59716">
        <ele>147.88980102539</ele>
        <time>2021-03-15T16:15:46.311Z</time>
      </trkpt>
      <trkpt lat="44.46866" lon="1.59784">
        <ele>147.78428649902</ele>
        <time>2021-03-15T16:15:55.142Z</time>
      </trkpt>
      <trkpt lat="44.46907" lon="1.59838">
        <ele>149.90946960449</ele>
        <time>2021-03-15T16:16:03.984Z</time>
      </trkpt>
      <trkpt lat="44.46878" lon="1.5976">
        <ele>151.29441833496</ele>
        <time>2021-03-15T16:16:12.839Z</time>
      </trkpt>
      <trkpt lat="44.46856" lon="1.59717">
        <ele>152.66287231445</ele>
        <time>2021-03-15T16:16:21.701Z</time>
      </trkpt>
      <trkpt lat="44.46737" lon="1.59556">
        <ele>157.70585632324</ele>
        <time>2021-03-15T16:16:30.596Z</time>
      </trkpt>
      <trkpt lat="44.46711" lon="1.59512">
        <ele>159.45986938477</ele>
        <time>2021-03-15T16:16:39.499Z</time>
      </trkpt>
      <trkpt lat="44.46703" lon="1.59475">
        <ele>162.68898010254</ele>
        <time>2021-03-15T16:16:48.408Z</time>
      </trkpt>
      <trkpt lat="44.46713" lon="1.59412">
        <ele>162.54135131836</ele>
        <time>2021-03-15T16:16:57.326Z</time>
      </trkpt>
      <trkpt lat="44.46734" lon="1.59355">
        <ele>160.34268188477</ele>
        <time>2021-03-15T16:17:06.253Z</time>
      </trkpt>
      <trkpt lat="44.46782" lon="1.59275">
        <ele>160.52685546875</ele>
        <time>2021-03-15T16:17:15.195Z</time>
      </trkpt>
      <trkpt lat="44.46834" lon="1.59211">
        <ele>161.29391479492</ele>
        <time>2021-03-15T16:17:24.151Z</time>
      </trkpt>
      <trkpt lat="44.46886" lon="1.59166">
        <ele>160.43449401855</ele>
        <time>2021-03-15T16:17:33.119Z</time>
      </trkpt>
      <trkpt lat="44.46963" lon="1.59107">
        <ele>158.22027587891</ele>
        <time>2021-03-15T16:17:42.105Z</time>
      </trkpt>
      <trkpt lat="44.46996" lon="1.59069">
        <ele>159.49269104004</ele>
        <time>2021-03-15T16:17:51.100Z</time>
      </trkpt>
      <trkpt lat="44.47058" lon="1.59004">
        <ele>157.17140197754</ele>
        <time>2021-03-15T16:18:00.110Z</time>
      </trkpt>
      <trkpt lat="44.47091" lon="1.58989">
        <ele>157.33335876465</ele>
        <time>2021-03-15T16:18:09.127Z</time>
      </trkpt>
      <trkpt lat="44.47119" lon="1.58968">
        <ele>156.0711517334</ele>
        <time>2021-03-15T16:18:18.150Z</time>
      </trkpt>
      <trkpt lat="44.47138" lon="1.58926">
        <ele>154.24676513672</ele>
        <time>2021-03-15T16:18:27.180Z</time>
      </trkpt>
      <trkpt lat="44.47153" lon="1.58885">
        <ele>154.07881164551</ele>
        <time>2021-03-15T16:18:36.217Z</time>
      </trkpt>
      <trkpt lat="44.47158" lon="1.58861">
        <ele>153.77890014648</ele>
        <time>2021-03-15T16:18:45.258Z</time>
      </trkpt>
      <trkpt lat="44.47168" lon="1.58847">
        <ele>153.2106628418</ele>
        <time>2021-03-15T16:18:54.301Z</time>
      </trkpt>
      <trkpt lat="44.47221" lon="1.58811">
        <ele>151.09169006348</ele>
        <time>2021-03-15T16:19:03.356Z</time>
      </trkpt>
      <trkpt lat="44.47286" lon="1.5875">
        <ele>144.65010070801</ele>
        <time>2021-03-15T16:19:12.427Z</time>
      </trkpt>
      <trkpt lat="44.47339" lon="1.58723">
        <ele>140.99377441406</ele>
        <time>2021-03-15T16:19:21.509Z</time>
      </trkpt>
      <trkpt lat="44.47367" lon="1.58714">
        <ele>140.46752929688</ele>
        <time>2021-03-15T16:19:30.597Z</time>
      </trkpt>
      <trkpt lat="44.47408" lon="1.58683">
        <ele>136.29086303711</ele>
        <time>2021-03-15T16:19:39.694Z</time>
      </trkpt>
      <trkpt lat="44.47495" lon="1.5866">
        <ele>135.53874206543</ele>
        <time>2021-03-15T16:19:48.809Z</time>
      </trkpt>
      <trkpt lat="44.47635" lon="1.58589">
        <ele>132.88363647461</ele>
        <time>2021-03-15T16:19:57.954Z</time>
      </trkpt>
      <trkpt lat="44.47662" lon="1.58591">
        <ele>135.56611633301</ele>
        <time>2021-03-15T16:20:07.104Z</time>
      </trkpt>
      <trkpt lat="44.4768" lon="1.58586">
        <ele>136.51335144043</ele>
        <time>2021-03-15T16:20:16.258Z</time>
      </trkpt>
      <trkpt lat="44.47702" lon="1.58572">
        <ele>135.8138885498</ele>
        <time>2021-03-15T16:20:25.417Z</time>
      </trkpt>
      <trkpt lat="44.47772" lon="1.5864">
        <ele>151.65353393555</ele>
        <time>2021-03-15T16:20:34.593Z</time>
      </trkpt>
      <trkpt lat="44.47787" lon="1.58667">
        <ele>156.40422058105</ele>
        <time>2021-03-15T16:20:43.774Z</time>
      </trkpt>
      <trkpt lat="44.47801" lon="1.58672">
        <ele>159.90058898926</ele>
        <time>2021-03-15T16:20:52.958Z</time>
      </trkpt>
      <trkpt lat="44.47834" lon="1.58678">
        <ele>164.73379516602</ele>
        <time>2021-03-15T16:21:02.148Z</time>
      </trkpt>
      <trkpt lat="44.47866" lon="1.58708">
        <ele>169.78228759766</ele>
        <time>2021-03-15T16:21:11.346Z</time>
      </trkpt>
      <trkpt lat="44.47894" lon="1.58755">
        <ele>176.3630065918</ele>
        <time>2021-03-15T16:21:20.553Z</time>
      </trkpt>
      <trkpt lat="44.47902" lon="1.5876">
        <ele>178.12652587891</ele>
        <time>2021-03-15T16:21:29.761Z</time>
      </trkpt>
      <trkpt lat="44.47911" lon="1.58689">
        <ele>179.86959838867</ele>
        <time>2021-03-15T16:21:38.980Z</time>
      </trkpt>
      <trkpt lat="44.4792" lon="1.58699">
        <ele>183.06259155273</ele>
        <time>2021-03-15T16:21:48.201Z</time>
      </trkpt>
      <trkpt lat="44.47932" lon="1.5876">
        <ele>185.61877441406</ele>
        <time>2021-03-15T16:21:57.431Z</time>
      </trkpt>
      <trkpt lat="44.47949" lon="1.58796">
        <ele>185.77183532715</ele>
        <time>2021-03-15T16:22:06.667Z</time>
      </trkpt>
      <trkpt lat="44.47962" lon="1.58803">
        <ele>188.75901794434</ele>
        <time>2021-03-15T16:22:15.906Z</time>
      </trkpt>
      <trkpt lat="44.47976" lon="1.58792">
        <ele>193.40167236328</ele>
        <time>2021-03-15T16:22:25.148Z</time>
      </trkpt>
      <trkpt lat="44.47981" lon="1.58739">
        <ele>198.17283630371</ele>
        <time>2021-03-15T16:22:34.398Z</time>
      </trkpt>
      <trkpt lat="44.47992" lon="1.58698">
        <ele>201.85659790039</ele>
        <time>2021-03-15T16:22:43.654Z</time>
      </trkpt>
      <trkpt lat="44.4801" lon="1.58647">
        <ele>207.83360290527</ele>
        <time>2021-03-15T16:22:52.918Z</time>
      </trkpt>
      <trkpt lat="44.48029" lon="1.58534">
        <ele>214.30725097656</ele>
        <time>2021-03-15T16:23:02.199Z</time>
      </trkpt>
      <trkpt lat="44.48027" lon="1.58446">
        <ele>226.02272033691</ele>
        <time>2021-03-15T16:23:11.493Z</time>
      </trkpt>
      <trkpt lat="44.48032" lon="1.58428">
        <ele>229.90675354004</ele>
        <time>2021-03-15T16:23:20.789Z</time>
      </trkpt>
      <trkpt lat="44.48045" lon="1.58427">
        <ele>233.32580566406</ele>
        <time>2021-03-15T16:23:30.088Z</time>
      </trkpt>
      <trkpt lat="44.48057" lon="1.58455">
        <ele>232.6135559082</ele>
        <time>2021-03-15T16:23:39.392Z</time>
      </trkpt>
      <trkpt lat="44.4808" lon="1.58532">
        <ele>230.16094970703</ele>
        <time>2021-03-15T16:23:48.708Z</time>
      </trkpt>
      <trkpt lat="44.48097" lon="1.58575">
        <ele>231.96290588379</ele>
        <time>2021-03-15T16:23:58.031Z</time>
      </trkpt>
      <trkpt lat="44.48116" lon="1.58599">
        <ele>235.10647583008</ele>
        <time>2021-03-15T16:24:07.359Z</time>
      </trkpt>
      <trkpt lat="44.48135" lon="1.58601">
        <ele>237.08592224121</ele>
        <time>2021-03-15T16:24:16.691Z</time>
      </trkpt>
      <trkpt lat="44.48173" lon="1.58493">
        <ele>246.74951171875</ele>
        <time>2021-03-15T16:24:26.040Z</time>
      </trkpt>
      <trkpt lat="44.48188" lon="1.5847">
        <ele>249.90158081055</ele>
        <time>2021-03-15T16:24:35.393Z</time>
      </trkpt>
      <trkpt lat="44.48214" lon="1.58447">
        <ele>251.99244689941</ele>
        <time>2021-03-15T16:24:44.752Z</time>
      </trkpt>
      <trkpt lat="44.48163" lon="1.58391">
        <ele>253.00788879395</ele>
        <time>2021-03-15T16:24:54.124Z</time>
      </trkpt>
      <trkpt lat="44.48139" lon="1.58356">
        <ele>254.24493408203</ele>
        <time>2021-03-15T16:25:03.503Z</time>
      </trkpt>
      <trkpt lat="44.48132" lon="1.58329">
        <ele>254.54135131836</ele>
        <time>2021-03-15T16:25:12.886Z</time>
      </trkpt>
      <trkpt lat="44.48132" lon="1.58281">
        <ele>254.31202697754</ele>
        <time>2021-03-15T16:25:22.276Z</time>
      </trkpt>
      <trkpt lat="44.48122" lon="1.58255">
        <ele>252.60572814941</ele>
        <time>2021-03-15T16:25:31.671Z</time>
      </trkpt>
      <trkpt lat="44.48111" lon="1.58216">
        <ele>250.69386291504</ele>
        <time>2021-03-15T16:25:41.072Z</time>
      </trkpt>
      <trkpt lat="44.48108" lon="1.58168">
        <ele>248.50091552734</ele>
        <time>2021-03-15T16:25:50.479Z</time>
      </trkpt>
      <trkpt lat="44.48141" lon="1.58071">
        <ele>254.47947692871</ele>
        <time>2021-03-15T16:25:59.902Z</time>
      </trkpt>
      <trkpt lat="44.48144" lon="1.58007">
        <ele>258.22039794922</ele>
        <time>2021-03-15T16:26:09.334Z</time>
      </trkpt>
      <trkpt lat="44.48154" lon="1.57964">
        <ele>258.43753051758</ele>
        <time>2021-03-15T16:26:18.772Z</time>
      </trkpt>
      <trkpt lat="44.48137" lon="1.57976">
        <ele>259</ele>
        <time>2021-03-15T16:26:28.214Z</time>
      </trkpt>
      <trkpt lat="44.48114" lon="1.57983">
        <ele>258.81466674805</ele>
        <time>2021-03-15T16:26:37.661Z</time>
      </trkpt>
      <trkpt lat="44.48095" lon="1.57974">
        <ele>256.77191162109</ele>
        <time>2021-03-15T16:26:47.112Z</time>
      </trkpt>
      <trkpt lat="44.48074" lon="1.57937">
        <ele>253.17990112305</ele>
        <time>2021-03-15T16:26:56.570Z</time>
      </trkpt>
      <trkpt lat="44.48058" lon="1.57889">
        <ele>249.82676696777</ele>
        <time>2021-03-15T16:27:06.035Z</time>
      </trkpt>
      <trkpt lat="44.48042" lon="1.57823">
        <ele>247.21615600586</ele>
        <time>2021-03-15T16:27:15.510Z</time>
      </trkpt>
      <trkpt lat="44.48031" lon="1.57749">
        <ele>243.70063781738</ele>
        <time>2021-03-15T16:27:24.996Z</time>
      </trkpt>
      <trkpt lat="44.48028" lon="1.5768">
        <ele>241.76306152344</ele>
        <time>2021-03-15T16:27:34.492Z</time>
      </trkpt>
      <trkpt lat="44.48006" lon="1.57625">
        <ele>237.83937072754</ele>
        <time>2021-03-15T16:27:43.997Z</time>
      </trkpt>
      <trkpt lat="44.47985" lon="1.57537">
        <ele>236.6639251709</ele>
        <time>2021-03-15T16:27:53.515Z</time>
      </trkpt>
      <trkpt lat="44.47959" lon="1.57524">
        <ele>229.85581970215</ele>
        <time>2021-03-15T16:28:03.039Z</time>
      </trkpt>
      <trkpt lat="44.4795" lon="1.57508">
        <ele>229.55101013184</ele>
        <time>2021-03-15T16:28:12.566Z</time>
      </trkpt>
      <trkpt lat="44.47934" lon="1.57426">
        <ele>231.57861328125</ele>
        <time>2021-03-15T16:28:22.105Z</time>
      </trkpt>
      <trkpt lat="44.47903" lon="1.57352">
        <ele>233.25082397461</ele>
        <time>2021-03-15T16:28:31.656Z</time>
      </trkpt>
      <trkpt lat="44.47887" lon="1.57275">
        <ele>238.48608398438</ele>
        <time>2021-03-15T16:28:41.219Z</time>
      </trkpt>
      <trkpt lat="44.47873" lon="1.57223">
        <ele>241.11451721191</ele>
        <time>2021-03-15T16:28:50.790Z</time>
      </trkpt>
      <trkpt lat="44.47866" lon="1.57169">
        <ele>239.0256652832</ele>
        <time>2021-03-15T16:29:00.369Z</time>
      </trkpt>
      <trkpt lat="44.47849" lon="1.57111">
        <ele>241.24348449707</ele>
        <time>2021-03-15T16:29:09.956Z</time>
      </trkpt>
      <trkpt lat="44.47881" lon="1.57009">
        <ele>235.76179504395</ele>
        <time>2021-03-15T16:29:19.559Z</time>
      </trkpt>
      <trkpt lat="44.47879" lon="1.56948">
        <ele>229.17561340332</ele>
        <time>2021-03-15T16:29:29.171Z</time>
      </trkpt>
      <trkpt lat="44.47944" lon="1.56946">
        <ele>232.9553527832</ele>
        <time>2021-03-15T16:29:38.796Z</time>
      </trkpt>
      <trkpt lat="44.48036" lon="1.5692">
        <ele>235.46809387207</ele>
        <time>2021-03-15T16:29:48.440Z</time>
      </trkpt>
      <trkpt lat="44.48072" lon="1.569">
        <ele>235.43815612793</ele>
        <time>2021-03-15T16:29:58.092Z</time>
      </trkpt>
      <trkpt lat="44.4811" lon="1.56875">
        <ele>236.07192993164</ele>
        <time>2021-03-15T16:30:07.752Z</time>
      </trkpt>
      <trkpt lat="44.48161" lon="1.56856">
        <ele>231.97967529297</ele>
        <time>2021-03-15T16:30:17.423Z</time>
      </trkpt>
      <trkpt lat="44.48224" lon="1.56853">
        <ele>238.23138427734</ele>
        <time>2021-03-15T16:30:27.106Z</time>
      </trkpt>
      <trkpt lat="44.48249" lon="1.56848">
        <ele>235.15434265137</ele>
        <time>2021-03-15T16:30:36.794Z</time>
      </trkpt>
      <trkpt lat="44.4828" lon="1.56838">
        <ele>235.6999206543</ele>
        <time>2021-03-15T16:30:46.489Z</time>
      </trkpt>
      <trkpt lat="44.4831" lon="1.56833">
        <ele>234.05520629883</ele>
        <time>2021-03-15T16:30:56.190Z</time>
      </trkpt>
      <trkpt lat="44.48356" lon="1.5683">
        <ele>229.2000579834</ele>
        <time>2021-03-15T16:31:05.900Z</time>
      </trkpt>
      <trkpt lat="44.48395" lon="1.56813">
        <ele>231.88836669922</ele>
        <time>2021-03-15T16:31:15.618Z</time>
      </trkpt>
      <trkpt lat="44.48429" lon="1.56856">
        <ele>238.63165283203</ele>
        <time>2021-03-15T16:31:25.345Z</time>
      </trkpt>
      <trkpt lat="44.48476" lon="1.56997">
        <ele>244.9465637207</ele>
        <time>2021-03-15T16:31:35.095Z</time>
      </trkpt>
      <trkpt lat="44.48546" lon="1.56902">
        <ele>248.14706420898</ele>
        <time>2021-03-15T16:31:44.864Z</time>
      </trkpt>
      <trkpt lat="44.48613" lon="1.56827">
        <ele>241.78378295898</ele>
        <time>2021-03-15T16:31:54.650Z</time>
      </trkpt>
      <trkpt lat="44.48626" lon="1.56802">
        <ele>237.76278686523</ele>
        <time>2021-03-15T16:32:04.441Z</time>
      </trkpt>
      <trkpt lat="44.48676" lon="1.56626">
        <ele>239.27642822266</ele>
        <time>2021-03-15T16:32:14.259Z</time>
      </trkpt>
      <trkpt lat="44.48698" lon="1.5654">
        <ele>241.74923706055</ele>
        <time>2021-03-15T16:32:24.090Z</time>
      </trkpt>
      <trkpt lat="44.48728" lon="1.56495">
        <ele>239.79956054688</ele>
        <time>2021-03-15T16:32:33.930Z</time>
      </trkpt>
      <trkpt lat="44.48753" lon="1.5645">
        <ele>240.51812744141</ele>
        <time>2021-03-15T16:32:43.778Z</time>
      </trkpt>
      <trkpt lat="44.48835" lon="1.56419">
        <ele>240.01216125488</ele>
        <time>2021-03-15T16:32:53.643Z</time>
      </trkpt>
      <trkpt lat="44.48924" lon="1.5638">
        <ele>244.76756286621</ele>
        <time>2021-03-15T16:33:03.526Z</time>
      </trkpt>
      <trkpt lat="44.48952" lon="1.56363">
        <ele>245.55618286133</ele>
        <time>2021-03-15T16:33:13.416Z</time>
      </trkpt>
      <trkpt lat="44.49003" lon="1.56308">
        <ele>248.3289642334</ele>
        <time>2021-03-15T16:33:23.318Z</time>
      </trkpt>
      <trkpt lat="44.49025" lon="1.56265">
        <ele>250.63899230957</ele>
        <time>2021-03-15T16:33:33.228Z</time>
      </trkpt>
      <trkpt lat="44.48982" lon="1.56054">
        <ele>239.33218383789</ele>
        <time>2021-03-15T16:33:43.169Z</time>
      </trkpt>
      <trkpt lat="44.48941" lon="1.5592">
        <ele>231.34846496582</ele>
        <time>2021-03-15T16:33:53.131Z</time>
      </trkpt>
      <trkpt lat="44.48953" lon="1.55886">
        <ele>226.71168518066</ele>
        <time>2021-03-15T16:34:03.099Z</time>
      </trkpt>
      <trkpt lat="44.48914" lon="1.5583">
        <ele>219.01544189453</ele>
        <time>2021-03-15T16:34:13.078Z</time>
      </trkpt>
      <trkpt lat="44.48883" lon="1.55802">
        <ele>214.67248535156</ele>
        <time>2021-03-15T16:34:23.064Z</time>
      </trkpt>
      <trkpt lat="44.48875" lon="1.55791">
        <ele>213.55679321289</ele>
        <time>2021-03-15T16:34:33.053Z</time>
      </trkpt>
      <trkpt lat="44.48841" lon="1.557">
        <ele>200.98956298828</ele>
        <time>2021-03-15T16:34:43.056Z</time>
      </trkpt>
      <trkpt lat="44.4883" lon="1.55653">
        <ele>199.89598083496</ele>
        <time>2021-03-15T16:34:53.066Z</time>
      </trkpt>
      <trkpt lat="44.48834" lon="1.55618">
        <ele>193.6382598877</ele>
        <time>2021-03-15T16:35:03.081Z</time>
      </trkpt>
      <trkpt lat="44.48816" lon="1.55547">
        <ele>178.78971862793</ele>
        <time>2021-03-15T16:35:13.107Z</time>
      </trkpt>
      <trkpt lat="44.48804" lon="1.55522">
        <ele>172.5881652832</ele>
        <time>2021-03-15T16:35:23.138Z</time>
      </trkpt>
      <trkpt lat="44.48775" lon="1.55509">
        <ele>172.95251464844</ele>
        <time>2021-03-15T16:35:33.175Z</time>
      </trkpt>
      <trkpt lat="44.48724" lon="1.55504">
        <ele>173.67170715332</ele>
        <time>2021-03-15T16:35:43.222Z</time>
      </trkpt>
      <trkpt lat="44.48675" lon="1.55508">
        <ele>165.38150024414</ele>
        <time>2021-03-15T16:35:53.279Z</time>
      </trkpt>
      <trkpt lat="44.48667" lon="1.55498">
        <ele>159.21221923828</ele>
        <time>2021-03-15T16:36:03.338Z</time>
      </trkpt>
      <trkpt lat="44.4871" lon="1.55483">
        <ele>164.8631439209</ele>
        <time>2021-03-15T16:36:13.406Z</time>
      </trkpt>
      <trkpt lat="44.48766" lon="1.5547">
        <ele>160.02282714844</ele>
        <time>2021-03-15T16:36:23.485Z</time>
      </trkpt>
      <trkpt lat="44.48783" lon="1.55477">
        <ele>160.25454711914</ele>
        <time>2021-03-15T16:36:33.568Z</time>
      </trkpt>
      <trkpt lat="44.48796" lon="1.55476">
        <ele>158.05914306641</ele>
        <time>2021-03-15T16:36:43.653Z</time>
      </trkpt>
      <trkpt lat="44.48816" lon="1.55481">
        <ele>156.28503417969</ele>
        <time>2021-03-15T16:36:53.742Z</time>
      </trkpt>
      <trkpt lat="44.48817" lon="1.55467">
        <ele>151.51580810547</ele>
        <time>2021-03-15T16:37:03.833Z</time>
      </trkpt>
      <trkpt lat="44.48756" lon="1.55438">
        <ele>150.73741149902</ele>
        <time>2021-03-15T16:37:13.937Z</time>
      </trkpt>
      <trkpt lat="44.48742" lon="1.55435">
        <ele>150.45098876953</ele>
        <time>2021-03-15T16:37:24.044Z</time>
      </trkpt>
      <trkpt lat="44.48731" lon="1.55421">
        <ele>145.91624450684</ele>
        <time>2021-03-15T16:37:34.154Z</time>
      </trkpt>
      <trkpt lat="44.48814" lon="1.5542">
        <ele>140.31568908691</ele>
        <time>2021-03-15T16:37:44.281Z</time>
      </trkpt>
      <trkpt lat="44.48826" lon="1.55399">
        <ele>136.43460083008</ele>
        <time>2021-03-15T16:37:54.411Z</time>
      </trkpt>
      <trkpt lat="44.48789" lon="1.5537">
        <ele>136.55062866211</ele>
        <time>2021-03-15T16:38:04.550Z</time>
      </trkpt>
      <trkpt lat="44.48741" lon="1.55347">
        <ele>135.25425720215</ele>
        <time>2021-03-15T16:38:14.699Z</time>
      </trkpt>
      <trkpt lat="44.48714" lon="1.55345">
        <ele>134.09970092773</ele>
        <time>2021-03-15T16:38:24.853Z</time>
      </trkpt>
      <trkpt lat="44.48644" lon="1.55291">
        <ele>130.19755554199</ele>
        <time>2021-03-15T16:38:35.023Z</time>
      </trkpt>
      <trkpt lat="44.48575" lon="1.55286">
        <ele>129.71424865723</ele>
        <time>2021-03-15T16:38:45.207Z</time>
      </trkpt>
      <trkpt lat="44.48566" lon="1.55271">
        <ele>129.98373413086</ele>
        <time>2021-03-15T16:38:55.394Z</time>
      </trkpt>
      <trkpt lat="44.4857" lon="1.55241">
        <ele>132.66348266602</ele>
        <time>2021-03-15T16:39:05.585Z</time>
      </trkpt>
      <trkpt lat="44.48551" lon="1.55232">
        <ele>132.95140075684</ele>
        <time>2021-03-15T16:39:15.780Z</time>
      </trkpt>
      <trkpt lat="44.48528" lon="1.55194">
        <ele>137.54362487793</ele>
        <time>2021-03-15T16:39:25.983Z</time>
      </trkpt>
      <trkpt lat="44.48518" lon="1.55166">
        <ele>142.73335266113</ele>
        <time>2021-03-15T16:39:36.190Z</time>
      </trkpt>
      <trkpt lat="44.48483" lon="1.55145">
        <ele>142.73335266113</ele>
        <time>2021-03-15T16:39:46.405Z</time>
      </trkpt>
      <trkpt lat="44.48406" lon="1.5512">
        <ele>149.96778869629</ele>
        <time>2021-03-15T16:39:56.635Z</time>
      </trkpt>
      <trkpt lat="44.4833" lon="1.55142">
        <ele>142.96295166016</ele>
        <time>2021-03-15T16:40:06.881Z</time>
      </trkpt>
      <trkpt lat="44.483" lon="1.55141">
        <ele>139.65592956543</ele>
        <time>2021-03-15T16:40:17.133Z</time>
      </trkpt>
      <trkpt lat="44.48241" lon="1.5508">
        <ele>167.89907836914</ele>
        <time>2021-03-15T16:40:27.400Z</time>
      </trkpt>
      <trkpt lat="44.4818" lon="1.55041">
        <ele>182.0514831543</ele>
        <time>2021-03-15T16:40:37.680Z</time>
      </trkpt>
      <trkpt lat="44.4811" lon="1.55028">
        <ele>166.8034362793</ele>
        <time>2021-03-15T16:40:47.974Z</time>
      </trkpt>
      <trkpt lat="44.48" lon="1.54942">
        <ele>175.27920532227</ele>
        <time>2021-03-15T16:40:58.293Z</time>
      </trkpt>
      <trkpt lat="44.4798" lon="1.54923">
        <ele>172.17205810547</ele>
        <time>2021-03-15T16:41:08.617Z</time>
      </trkpt>
      <trkpt lat="44.47974" lon="1.54893">
        <ele>176.41654968262</ele>
        <time>2021-03-15T16:41:18.946Z</time>
      </trkpt>
      <trkpt lat="44.47971" lon="1.54857">
        <ele>177.7154083252</ele>
        <time>2021-03-15T16:41:29.280Z</time>
      </trkpt>
      <trkpt lat="44.47994" lon="1.54827">
        <ele>185.68397521973</ele>
        <time>2021-03-15T16:41:39.620Z</time>
      </trkpt>
      <trkpt lat="44.48007" lon="1.54798">
        <ele>189.26309204102</ele>
        <time>2021-03-15T16:41:49.965Z</time>
      </trkpt>
      <trkpt lat="44.48016" lon="1.54755">
        <ele>193.36250305176</ele>
        <time>2021-03-15T16:42:00.317Z</time>
      </trkpt>
      <trkpt lat="44.48006" lon="1.54719">
        <ele>194.5401763916</ele>
        <time>2021-03-15T16:42:10.674Z</time>
      </trkpt>
      <trkpt lat="44.47992" lon="1.54704">
        <ele>192.93663024902</ele>
        <time>2021-03-15T16:42:21.035Z</time>
      </trkpt>
      <trkpt lat="44.47972" lon="1.54672">
        <ele>192.5047454834</ele>
        <time>2021-03-15T16:42:31.402Z</time>
      </trkpt>
      <trkpt lat="44.47973" lon="1.54646">
        <ele>196.45137023926</ele>
        <time>2021-03-15T16:42:41.772Z</time>
      </trkpt>
      <trkpt lat="44.47963" lon="1.54572">
        <ele>205.21905517578</ele>
        <time>2021-03-15T16:42:52.153Z</time>
      </trkpt>
      <trkpt lat="44.47939" lon="1.54492">
        <ele>211.84121704102</ele>
        <time>2021-03-15T16:43:02.547Z</time>
      </trkpt>
      <trkpt lat="44.47944" lon="1.54456">
        <ele>213.63310241699</ele>
        <time>2021-03-15T16:43:12.946Z</time>
      </trkpt>
      <trkpt lat="44.47928" lon="1.54461">
        <ele>213.5712890625</ele>
        <time>2021-03-15T16:43:23.348Z</time>
      </trkpt>
      <trkpt lat="44.47903" lon="1.5448">
        <ele>214.23582458496</ele>
        <time>2021-03-15T16:43:33.756Z</time>
      </trkpt>
      <trkpt lat="44.47891" lon="1.54479">
        <ele>214.90797424316</ele>
        <time>2021-03-15T16:43:44.166Z</time>
      </trkpt>
      <trkpt lat="44.47827" lon="1.54445">
        <ele>220.23071289062</ele>
        <time>2021-03-15T16:43:54.590Z</time>
      </trkpt>
      <trkpt lat="44.47784" lon="1.54392">
        <ele>225.3715057373</ele>
        <time>2021-03-15T16:44:05.025Z</time>
      </trkpt>
    </trkseg>
  </trk>
</gpx>